<?xml version="1.0" encoding="UTF-8" standalone="no" ?>
<gpx xmlns="http://www.topografix.com/GPX/1/1" xmlns:xsi="http://www.w3.org/2001/XMLSchema-instance" xsi:schemaLocation="http://www.topografix.com/GPX/1/1 http://www.topografix.com/GPX/1/1/gpx.xsd" version="1.1" creator="VisuGPX - https://www.visugpx.com">
  <metadata>
    <name>83 - M - La Garde Freinet</name>
    <desc><![CDATA[La Garde Freinet - Les Roches Blanches - La Croix - Le Fort - La crèche]]></desc>
  </metadata>
  <wpt lat="43.31948" lon="6.47024">
    <ele>375</ele>
    <name><![CDATA[Point de passage 1]]></name>
    <type><![CDATA[GENERIC]]></type>
  </wpt>
  <wpt lat="43.3192" lon="6.47016">
    <ele>373</ele>
    <name><![CDATA[Point de passage 2]]></name>
    <type><![CDATA[GENERIC]]></type>
  </wpt>
  <trk>
    <name><![CDATA[Garde Freinet roches blanches mercredi ]]></name>
    <trkseg>
      <trkpt lat="43.31948" lon="6.47024">
        <ele>375</ele>
        <time>2025-12-10T07:59:28.000Z</time>
      </trkpt>
      <trkpt lat="43.31944" lon="6.47024">
        <ele>374</ele>
        <time>2025-12-10T07:59:31.000Z</time>
      </trkpt>
      <trkpt lat="43.31934" lon="6.47026">
        <ele>372</ele>
        <time>2025-12-10T07:59:40.000Z</time>
      </trkpt>
      <trkpt lat="43.31925" lon="6.47025">
        <ele>369</ele>
        <time>2025-12-10T07:59:49.000Z</time>
      </trkpt>
      <trkpt lat="43.31919" lon="6.47015">
        <ele>370</ele>
        <time>2025-12-10T07:59:58.000Z</time>
      </trkpt>
      <trkpt lat="43.31911" lon="6.47004">
        <ele>369</ele>
        <time>2025-12-10T08:00:07.000Z</time>
      </trkpt>
      <trkpt lat="43.31905" lon="6.46993">
        <ele>369</ele>
        <time>2025-12-10T08:00:16.000Z</time>
      </trkpt>
      <trkpt lat="43.319" lon="6.4698">
        <ele>369</ele>
        <time>2025-12-10T08:00:25.000Z</time>
      </trkpt>
      <trkpt lat="43.31895" lon="6.46967">
        <ele>369</ele>
        <time>2025-12-10T08:00:34.000Z</time>
      </trkpt>
      <trkpt lat="43.31898" lon="6.46954">
        <ele>370</ele>
        <time>2025-12-10T08:00:43.000Z</time>
      </trkpt>
      <trkpt lat="43.31906" lon="6.46945">
        <ele>370</ele>
        <time>2025-12-10T08:00:52.000Z</time>
      </trkpt>
      <trkpt lat="43.31914" lon="6.46936">
        <ele>371</ele>
        <time>2025-12-10T08:01:04.000Z</time>
      </trkpt>
      <trkpt lat="43.31917" lon="6.46925">
        <ele>373</ele>
        <time>2025-12-10T08:01:13.000Z</time>
      </trkpt>
      <trkpt lat="43.31909" lon="6.46916">
        <ele>376</ele>
        <time>2025-12-10T08:01:28.000Z</time>
      </trkpt>
      <trkpt lat="43.319" lon="6.46907">
        <ele>378</ele>
        <time>2025-12-10T08:01:37.000Z</time>
      </trkpt>
      <trkpt lat="43.31892" lon="6.469">
        <ele>380</ele>
        <time>2025-12-10T08:01:52.000Z</time>
      </trkpt>
      <trkpt lat="43.31884" lon="6.46894">
        <ele>382</ele>
        <time>2025-12-10T08:02:01.000Z</time>
      </trkpt>
      <trkpt lat="43.31875" lon="6.46888">
        <ele>383</ele>
        <time>2025-12-10T08:02:13.000Z</time>
      </trkpt>
      <trkpt lat="43.31866" lon="6.46884">
        <ele>384</ele>
        <time>2025-12-10T08:02:22.000Z</time>
      </trkpt>
      <trkpt lat="43.31856" lon="6.46878">
        <ele>385</ele>
        <time>2025-12-10T08:02:34.000Z</time>
      </trkpt>
      <trkpt lat="43.31848" lon="6.46871">
        <ele>386</ele>
        <time>2025-12-10T08:02:43.000Z</time>
      </trkpt>
      <trkpt lat="43.31839" lon="6.46863">
        <ele>387</ele>
        <time>2025-12-10T08:02:52.000Z</time>
      </trkpt>
      <trkpt lat="43.3183" lon="6.46854">
        <ele>388</ele>
        <time>2025-12-10T08:03:01.000Z</time>
      </trkpt>
      <trkpt lat="43.31823" lon="6.46844">
        <ele>389</ele>
        <time>2025-12-10T08:03:10.000Z</time>
      </trkpt>
      <trkpt lat="43.31816" lon="6.46834">
        <ele>390</ele>
        <time>2025-12-10T08:03:19.000Z</time>
      </trkpt>
      <trkpt lat="43.31809" lon="6.46826">
        <ele>392</ele>
        <time>2025-12-10T08:03:28.000Z</time>
      </trkpt>
      <trkpt lat="43.31808" lon="6.46813">
        <ele>393</ele>
        <time>2025-12-10T08:03:37.000Z</time>
      </trkpt>
      <trkpt lat="43.31806" lon="6.46801">
        <ele>395</ele>
        <time>2025-12-10T08:03:46.000Z</time>
      </trkpt>
      <trkpt lat="43.31801" lon="6.46788">
        <ele>397</ele>
        <time>2025-12-10T08:03:58.000Z</time>
      </trkpt>
      <trkpt lat="43.318" lon="6.46775">
        <ele>398</ele>
        <time>2025-12-10T08:04:10.000Z</time>
      </trkpt>
      <trkpt lat="43.318" lon="6.46761">
        <ele>399</ele>
        <time>2025-12-10T08:04:22.000Z</time>
      </trkpt>
      <trkpt lat="43.31799" lon="6.46749">
        <ele>398</ele>
        <time>2025-12-10T08:04:34.000Z</time>
      </trkpt>
      <trkpt lat="43.31795" lon="6.46757">
        <ele>396</ele>
        <time>2025-12-10T08:04:46.000Z</time>
      </trkpt>
      <trkpt lat="43.31787" lon="6.46765">
        <ele>395</ele>
        <time>2025-12-10T08:05:10.000Z</time>
      </trkpt>
      <trkpt lat="43.31778" lon="6.46771">
        <ele>395</ele>
        <time>2025-12-10T08:05:19.000Z</time>
      </trkpt>
      <trkpt lat="43.31771" lon="6.46779">
        <ele>396</ele>
        <time>2025-12-10T08:05:28.000Z</time>
      </trkpt>
      <trkpt lat="43.3177" lon="6.46793">
        <ele>398</ele>
        <time>2025-12-10T08:05:40.000Z</time>
      </trkpt>
      <trkpt lat="43.31766" lon="6.46806">
        <ele>399</ele>
        <time>2025-12-10T08:05:49.000Z</time>
      </trkpt>
      <trkpt lat="43.31766" lon="6.46818">
        <ele>401</ele>
        <time>2025-12-10T08:06:04.000Z</time>
      </trkpt>
      <trkpt lat="43.31771" lon="6.46824">
        <ele>404</ele>
        <time>2025-12-10T08:06:19.000Z</time>
      </trkpt>
      <trkpt lat="43.31763" lon="6.46821">
        <ele>405</ele>
        <time>2025-12-10T08:07:31.000Z</time>
      </trkpt>
      <trkpt lat="43.31753" lon="6.46815">
        <ele>407</ele>
        <time>2025-12-10T08:07:40.000Z</time>
      </trkpt>
      <trkpt lat="43.31743" lon="6.46809">
        <ele>408</ele>
        <time>2025-12-10T08:07:52.000Z</time>
      </trkpt>
      <trkpt lat="43.31735" lon="6.46804">
        <ele>410</ele>
        <time>2025-12-10T08:08:04.000Z</time>
      </trkpt>
      <trkpt lat="43.31726" lon="6.46801">
        <ele>411</ele>
        <time>2025-12-10T08:08:13.000Z</time>
      </trkpt>
      <trkpt lat="43.31715" lon="6.46797">
        <ele>412</ele>
        <time>2025-12-10T08:08:22.000Z</time>
      </trkpt>
      <trkpt lat="43.31706" lon="6.46795">
        <ele>412</ele>
        <time>2025-12-10T08:08:34.000Z</time>
      </trkpt>
      <trkpt lat="43.31698" lon="6.46789">
        <ele>412</ele>
        <time>2025-12-10T08:08:43.000Z</time>
      </trkpt>
      <trkpt lat="43.31688" lon="6.46788">
        <ele>411</ele>
        <time>2025-12-10T08:08:52.000Z</time>
      </trkpt>
      <trkpt lat="43.31681" lon="6.46796">
        <ele>408</ele>
        <time>2025-12-10T08:09:10.000Z</time>
      </trkpt>
      <trkpt lat="43.31676" lon="6.46809">
        <ele>404</ele>
        <time>2025-12-10T08:09:28.000Z</time>
      </trkpt>
      <trkpt lat="43.31668" lon="6.46813">
        <ele>399</ele>
        <time>2025-12-10T08:09:40.000Z</time>
      </trkpt>
      <trkpt lat="43.31658" lon="6.46814">
        <ele>398</ele>
        <time>2025-12-10T08:10:13.000Z</time>
      </trkpt>
      <trkpt lat="43.31649" lon="6.46817">
        <ele>398</ele>
        <time>2025-12-10T08:10:22.000Z</time>
      </trkpt>
      <trkpt lat="43.3164" lon="6.46819">
        <ele>399</ele>
        <time>2025-12-10T08:10:34.000Z</time>
      </trkpt>
      <trkpt lat="43.31632" lon="6.46824">
        <ele>400</ele>
        <time>2025-12-10T08:10:43.000Z</time>
      </trkpt>
      <trkpt lat="43.31622" lon="6.46831">
        <ele>402</ele>
        <time>2025-12-10T08:10:55.000Z</time>
      </trkpt>
      <trkpt lat="43.31613" lon="6.46837">
        <ele>404</ele>
        <time>2025-12-10T08:11:04.000Z</time>
      </trkpt>
      <trkpt lat="43.31605" lon="6.46842">
        <ele>406</ele>
        <time>2025-12-10T08:11:13.000Z</time>
      </trkpt>
      <trkpt lat="43.31597" lon="6.46848">
        <ele>409</ele>
        <time>2025-12-10T08:11:22.000Z</time>
      </trkpt>
      <trkpt lat="43.31589" lon="6.46853">
        <ele>411</ele>
        <time>2025-12-10T08:11:31.000Z</time>
      </trkpt>
      <trkpt lat="43.3158" lon="6.46859">
        <ele>412</ele>
        <time>2025-12-10T08:11:40.000Z</time>
      </trkpt>
      <trkpt lat="43.31571" lon="6.46865">
        <ele>413</ele>
        <time>2025-12-10T08:11:49.000Z</time>
      </trkpt>
      <trkpt lat="43.31561" lon="6.4687">
        <ele>414</ele>
        <time>2025-12-10T08:11:58.000Z</time>
      </trkpt>
      <trkpt lat="43.31551" lon="6.46873">
        <ele>415</ele>
        <time>2025-12-10T08:12:07.000Z</time>
      </trkpt>
      <trkpt lat="43.31543" lon="6.46878">
        <ele>416</ele>
        <time>2025-12-10T08:12:16.000Z</time>
      </trkpt>
      <trkpt lat="43.31533" lon="6.46882">
        <ele>417</ele>
        <time>2025-12-10T08:12:25.000Z</time>
      </trkpt>
      <trkpt lat="43.31523" lon="6.46884">
        <ele>417</ele>
        <time>2025-12-10T08:12:34.000Z</time>
      </trkpt>
      <trkpt lat="43.31512" lon="6.46887">
        <ele>418</ele>
        <time>2025-12-10T08:12:43.000Z</time>
      </trkpt>
      <trkpt lat="43.31502" lon="6.46889">
        <ele>419</ele>
        <time>2025-12-10T08:12:52.000Z</time>
      </trkpt>
      <trkpt lat="43.31492" lon="6.46891">
        <ele>420</ele>
        <time>2025-12-10T08:13:01.000Z</time>
      </trkpt>
      <trkpt lat="43.31483" lon="6.46891">
        <ele>421</ele>
        <time>2025-12-10T08:13:10.000Z</time>
      </trkpt>
      <trkpt lat="43.31473" lon="6.46892">
        <ele>421</ele>
        <time>2025-12-10T08:13:19.000Z</time>
      </trkpt>
      <trkpt lat="43.31463" lon="6.4689">
        <ele>421</ele>
        <time>2025-12-10T08:13:28.000Z</time>
      </trkpt>
      <trkpt lat="43.31455" lon="6.46888">
        <ele>420</ele>
        <time>2025-12-10T08:13:37.000Z</time>
      </trkpt>
      <trkpt lat="43.31445" lon="6.46885">
        <ele>420</ele>
        <time>2025-12-10T08:13:46.000Z</time>
      </trkpt>
      <trkpt lat="43.31435" lon="6.46881">
        <ele>421</ele>
        <time>2025-12-10T08:13:55.000Z</time>
      </trkpt>
      <trkpt lat="43.31425" lon="6.4688">
        <ele>423</ele>
        <time>2025-12-10T08:14:04.000Z</time>
      </trkpt>
      <trkpt lat="43.31414" lon="6.46879">
        <ele>425</ele>
        <time>2025-12-10T08:14:19.000Z</time>
      </trkpt>
      <trkpt lat="43.31403" lon="6.46876">
        <ele>427</ele>
        <time>2025-12-10T08:14:28.000Z</time>
      </trkpt>
      <trkpt lat="43.31393" lon="6.46873">
        <ele>428</ele>
        <time>2025-12-10T08:14:40.000Z</time>
      </trkpt>
      <trkpt lat="43.31383" lon="6.46872">
        <ele>428</ele>
        <time>2025-12-10T08:14:49.000Z</time>
      </trkpt>
      <trkpt lat="43.31374" lon="6.46873">
        <ele>428</ele>
        <time>2025-12-10T08:14:58.000Z</time>
      </trkpt>
      <trkpt lat="43.31364" lon="6.46875">
        <ele>429</ele>
        <time>2025-12-10T08:15:07.000Z</time>
      </trkpt>
      <trkpt lat="43.31355" lon="6.46878">
        <ele>429</ele>
        <time>2025-12-10T08:15:16.000Z</time>
      </trkpt>
      <trkpt lat="43.31346" lon="6.46881">
        <ele>430</ele>
        <time>2025-12-10T08:15:25.000Z</time>
      </trkpt>
      <trkpt lat="43.31336" lon="6.46884">
        <ele>431</ele>
        <time>2025-12-10T08:15:34.000Z</time>
      </trkpt>
      <trkpt lat="43.31327" lon="6.46885">
        <ele>432</ele>
        <time>2025-12-10T08:15:43.000Z</time>
      </trkpt>
      <trkpt lat="43.31318" lon="6.46886">
        <ele>433</ele>
        <time>2025-12-10T08:15:52.000Z</time>
      </trkpt>
      <trkpt lat="43.31307" lon="6.46887">
        <ele>434</ele>
        <time>2025-12-10T08:16:04.000Z</time>
      </trkpt>
      <trkpt lat="43.31295" lon="6.46888">
        <ele>435</ele>
        <time>2025-12-10T08:16:13.000Z</time>
      </trkpt>
      <trkpt lat="43.31286" lon="6.46887">
        <ele>436</ele>
        <time>2025-12-10T08:16:22.000Z</time>
      </trkpt>
      <trkpt lat="43.31277" lon="6.46886">
        <ele>438</ele>
        <time>2025-12-10T08:16:31.000Z</time>
      </trkpt>
      <trkpt lat="43.31266" lon="6.46885">
        <ele>440</ele>
        <time>2025-12-10T08:16:40.000Z</time>
      </trkpt>
      <trkpt lat="43.31257" lon="6.46879">
        <ele>443</ele>
        <time>2025-12-10T08:16:49.000Z</time>
      </trkpt>
      <trkpt lat="43.31248" lon="6.46873">
        <ele>446</ele>
        <time>2025-12-10T08:16:58.000Z</time>
      </trkpt>
      <trkpt lat="43.31239" lon="6.46868">
        <ele>449</ele>
        <time>2025-12-10T08:17:07.000Z</time>
      </trkpt>
      <trkpt lat="43.3123" lon="6.46863">
        <ele>452</ele>
        <time>2025-12-10T08:17:16.000Z</time>
      </trkpt>
      <trkpt lat="43.31221" lon="6.46858">
        <ele>455</ele>
        <time>2025-12-10T08:17:25.000Z</time>
      </trkpt>
      <trkpt lat="43.31212" lon="6.46853">
        <ele>458</ele>
        <time>2025-12-10T08:17:34.000Z</time>
      </trkpt>
      <trkpt lat="43.31204" lon="6.46847">
        <ele>461</ele>
        <time>2025-12-10T08:17:43.000Z</time>
      </trkpt>
      <trkpt lat="43.31195" lon="6.46838">
        <ele>463</ele>
        <time>2025-12-10T08:17:55.000Z</time>
      </trkpt>
      <trkpt lat="43.31188" lon="6.46831">
        <ele>465</ele>
        <time>2025-12-10T08:18:07.000Z</time>
      </trkpt>
      <trkpt lat="43.3118" lon="6.46826">
        <ele>465</ele>
        <time>2025-12-10T08:23:22.000Z</time>
      </trkpt>
      <trkpt lat="43.3117" lon="6.46825">
        <ele>465</ele>
        <time>2025-12-10T08:23:34.000Z</time>
      </trkpt>
      <trkpt lat="43.3116" lon="6.46825">
        <ele>464</ele>
        <time>2025-12-10T08:23:46.000Z</time>
      </trkpt>
      <trkpt lat="43.3115" lon="6.46823">
        <ele>463</ele>
        <time>2025-12-10T08:23:55.000Z</time>
      </trkpt>
      <trkpt lat="43.31138" lon="6.46824">
        <ele>462</ele>
        <time>2025-12-10T08:24:04.000Z</time>
      </trkpt>
      <trkpt lat="43.31127" lon="6.46822">
        <ele>463</ele>
        <time>2025-12-10T08:24:13.000Z</time>
      </trkpt>
      <trkpt lat="43.31117" lon="6.46818">
        <ele>463</ele>
        <time>2025-12-10T08:24:25.000Z</time>
      </trkpt>
      <trkpt lat="43.31106" lon="6.46814">
        <ele>464</ele>
        <time>2025-12-10T08:24:34.000Z</time>
      </trkpt>
      <trkpt lat="43.31098" lon="6.46807">
        <ele>466</ele>
        <time>2025-12-10T08:24:43.000Z</time>
      </trkpt>
      <trkpt lat="43.31089" lon="6.46799">
        <ele>467</ele>
        <time>2025-12-10T08:24:55.000Z</time>
      </trkpt>
      <trkpt lat="43.31079" lon="6.46794">
        <ele>468</ele>
        <time>2025-12-10T08:25:07.000Z</time>
      </trkpt>
      <trkpt lat="43.31071" lon="6.46789">
        <ele>469</ele>
        <time>2025-12-10T08:25:16.000Z</time>
      </trkpt>
      <trkpt lat="43.31063" lon="6.4678">
        <ele>470</ele>
        <time>2025-12-10T08:25:25.000Z</time>
      </trkpt>
      <trkpt lat="43.31054" lon="6.46769">
        <ele>470</ele>
        <time>2025-12-10T08:25:37.000Z</time>
      </trkpt>
      <trkpt lat="43.31045" lon="6.4676">
        <ele>470</ele>
        <time>2025-12-10T08:25:46.000Z</time>
      </trkpt>
      <trkpt lat="43.31036" lon="6.46753">
        <ele>471</ele>
        <time>2025-12-10T08:25:58.000Z</time>
      </trkpt>
      <trkpt lat="43.31027" lon="6.46746">
        <ele>472</ele>
        <time>2025-12-10T08:26:07.000Z</time>
      </trkpt>
      <trkpt lat="43.31018" lon="6.46738">
        <ele>473</ele>
        <time>2025-12-10T08:26:19.000Z</time>
      </trkpt>
      <trkpt lat="43.31012" lon="6.46728">
        <ele>475</ele>
        <time>2025-12-10T08:26:28.000Z</time>
      </trkpt>
      <trkpt lat="43.31006" lon="6.46718">
        <ele>476</ele>
        <time>2025-12-10T08:26:40.000Z</time>
      </trkpt>
      <trkpt lat="43.31001" lon="6.46708">
        <ele>477</ele>
        <time>2025-12-10T08:26:52.000Z</time>
      </trkpt>
      <trkpt lat="43.30997" lon="6.46698">
        <ele>479</ele>
        <time>2025-12-10T08:27:01.000Z</time>
      </trkpt>
      <trkpt lat="43.30988" lon="6.46688">
        <ele>480</ele>
        <time>2025-12-10T08:27:13.000Z</time>
      </trkpt>
      <trkpt lat="43.3098" lon="6.4668">
        <ele>482</ele>
        <time>2025-12-10T08:27:22.000Z</time>
      </trkpt>
      <trkpt lat="43.30971" lon="6.46671">
        <ele>483</ele>
        <time>2025-12-10T08:27:31.000Z</time>
      </trkpt>
      <trkpt lat="43.30962" lon="6.46661">
        <ele>483</ele>
        <time>2025-12-10T08:27:43.000Z</time>
      </trkpt>
      <trkpt lat="43.30956" lon="6.46652">
        <ele>483</ele>
        <time>2025-12-10T08:27:52.000Z</time>
      </trkpt>
      <trkpt lat="43.30947" lon="6.46646">
        <ele>482</ele>
        <time>2025-12-10T08:28:01.000Z</time>
      </trkpt>
      <trkpt lat="43.30939" lon="6.46641">
        <ele>482</ele>
        <time>2025-12-10T08:28:19.000Z</time>
      </trkpt>
      <trkpt lat="43.30931" lon="6.46636">
        <ele>481</ele>
        <time>2025-12-10T08:28:25.000Z</time>
      </trkpt>
      <trkpt lat="43.30922" lon="6.46632">
        <ele>481</ele>
        <time>2025-12-10T08:28:34.000Z</time>
      </trkpt>
      <trkpt lat="43.30913" lon="6.46629">
        <ele>481</ele>
        <time>2025-12-10T08:28:43.000Z</time>
      </trkpt>
      <trkpt lat="43.30906" lon="6.46629">
        <ele>481</ele>
        <time>2025-12-10T08:28:49.000Z</time>
      </trkpt>
      <trkpt lat="43.30915" lon="6.46628">
        <ele>481</ele>
        <time>2025-12-10T08:29:07.000Z</time>
      </trkpt>
      <trkpt lat="43.30928" lon="6.4663">
        <ele>482</ele>
        <time>2025-12-10T08:29:16.000Z</time>
      </trkpt>
      <trkpt lat="43.30937" lon="6.46633">
        <ele>482</ele>
        <time>2025-12-10T08:29:22.000Z</time>
      </trkpt>
      <trkpt lat="43.30946" lon="6.46639">
        <ele>482</ele>
        <time>2025-12-10T08:29:34.000Z</time>
      </trkpt>
      <trkpt lat="43.30954" lon="6.46645">
        <ele>483</ele>
        <time>2025-12-10T08:29:40.000Z</time>
      </trkpt>
      <trkpt lat="43.30964" lon="6.46655">
        <ele>482</ele>
        <time>2025-12-10T08:29:49.000Z</time>
      </trkpt>
      <trkpt lat="43.30971" lon="6.46665">
        <ele>482</ele>
        <time>2025-12-10T08:29:58.000Z</time>
      </trkpt>
      <trkpt lat="43.3098" lon="6.46674">
        <ele>481</ele>
        <time>2025-12-10T08:30:07.000Z</time>
      </trkpt>
      <trkpt lat="43.30988" lon="6.46684">
        <ele>480</ele>
        <time>2025-12-10T08:30:16.000Z</time>
      </trkpt>
      <trkpt lat="43.30995" lon="6.46693">
        <ele>479</ele>
        <time>2025-12-10T08:30:25.000Z</time>
      </trkpt>
      <trkpt lat="43.31002" lon="6.46701">
        <ele>478</ele>
        <time>2025-12-10T08:30:34.000Z</time>
      </trkpt>
      <trkpt lat="43.31007" lon="6.46712">
        <ele>477</ele>
        <time>2025-12-10T08:30:43.000Z</time>
      </trkpt>
      <trkpt lat="43.31014" lon="6.46723">
        <ele>476</ele>
        <time>2025-12-10T08:30:52.000Z</time>
      </trkpt>
      <trkpt lat="43.3102" lon="6.46734">
        <ele>475</ele>
        <time>2025-12-10T08:31:01.000Z</time>
      </trkpt>
      <trkpt lat="43.3103" lon="6.46741">
        <ele>475</ele>
        <time>2025-12-10T08:31:13.000Z</time>
      </trkpt>
      <trkpt lat="43.3104" lon="6.46749">
        <ele>474</ele>
        <time>2025-12-10T08:31:22.000Z</time>
      </trkpt>
      <trkpt lat="43.31049" lon="6.46759">
        <ele>472</ele>
        <time>2025-12-10T08:31:31.000Z</time>
      </trkpt>
      <trkpt lat="43.31058" lon="6.46769">
        <ele>472</ele>
        <time>2025-12-10T08:31:40.000Z</time>
      </trkpt>
      <trkpt lat="43.31067" lon="6.46777">
        <ele>470</ele>
        <time>2025-12-10T08:31:49.000Z</time>
      </trkpt>
      <trkpt lat="43.31075" lon="6.46784">
        <ele>470</ele>
        <time>2025-12-10T08:31:58.000Z</time>
      </trkpt>
      <trkpt lat="43.31084" lon="6.46789">
        <ele>469</ele>
        <time>2025-12-10T08:32:07.000Z</time>
      </trkpt>
      <trkpt lat="43.31095" lon="6.46796">
        <ele>469</ele>
        <time>2025-12-10T08:32:16.000Z</time>
      </trkpt>
      <trkpt lat="43.31105" lon="6.46804">
        <ele>469</ele>
        <time>2025-12-10T08:32:25.000Z</time>
      </trkpt>
      <trkpt lat="43.31115" lon="6.46811">
        <ele>468</ele>
        <time>2025-12-10T08:32:34.000Z</time>
      </trkpt>
      <trkpt lat="43.31124" lon="6.46815">
        <ele>467</ele>
        <time>2025-12-10T08:32:43.000Z</time>
      </trkpt>
      <trkpt lat="43.31135" lon="6.46819">
        <ele>466</ele>
        <time>2025-12-10T08:32:52.000Z</time>
      </trkpt>
      <trkpt lat="43.31147" lon="6.46821">
        <ele>465</ele>
        <time>2025-12-10T08:33:04.000Z</time>
      </trkpt>
      <trkpt lat="43.31155" lon="6.46822">
        <ele>464</ele>
        <time>2025-12-10T08:33:13.000Z</time>
      </trkpt>
      <trkpt lat="43.31151" lon="6.46814">
        <ele>465</ele>
        <time>2025-12-10T08:33:52.000Z</time>
      </trkpt>
      <trkpt lat="43.31141" lon="6.46809">
        <ele>465</ele>
        <time>2025-12-10T08:34:07.000Z</time>
      </trkpt>
      <trkpt lat="43.31132" lon="6.46806">
        <ele>466</ele>
        <time>2025-12-10T08:34:16.000Z</time>
      </trkpt>
      <trkpt lat="43.31122" lon="6.468">
        <ele>467</ele>
        <time>2025-12-10T08:34:28.000Z</time>
      </trkpt>
      <trkpt lat="43.31113" lon="6.46795">
        <ele>468</ele>
        <time>2025-12-10T08:34:40.000Z</time>
      </trkpt>
      <trkpt lat="43.31102" lon="6.46793">
        <ele>469</ele>
        <time>2025-12-10T08:34:52.000Z</time>
      </trkpt>
      <trkpt lat="43.31093" lon="6.4679">
        <ele>470</ele>
        <time>2025-12-10T08:35:01.000Z</time>
      </trkpt>
      <trkpt lat="43.31084" lon="6.46783">
        <ele>472</ele>
        <time>2025-12-10T08:35:10.000Z</time>
      </trkpt>
      <trkpt lat="43.31077" lon="6.46773">
        <ele>474</ele>
        <time>2025-12-10T08:35:22.000Z</time>
      </trkpt>
      <trkpt lat="43.31069" lon="6.46763">
        <ele>475</ele>
        <time>2025-12-10T08:35:31.000Z</time>
      </trkpt>
      <trkpt lat="43.31062" lon="6.46752">
        <ele>477</ele>
        <time>2025-12-10T08:35:43.000Z</time>
      </trkpt>
      <trkpt lat="43.31055" lon="6.46742">
        <ele>479</ele>
        <time>2025-12-10T08:36:01.000Z</time>
      </trkpt>
      <trkpt lat="43.31048" lon="6.46732">
        <ele>481</ele>
        <time>2025-12-10T08:36:10.000Z</time>
      </trkpt>
      <trkpt lat="43.3104" lon="6.46725">
        <ele>483</ele>
        <time>2025-12-10T08:36:22.000Z</time>
      </trkpt>
      <trkpt lat="43.31031" lon="6.46718">
        <ele>484</ele>
        <time>2025-12-10T08:36:34.000Z</time>
      </trkpt>
      <trkpt lat="43.31025" lon="6.46709">
        <ele>486</ele>
        <time>2025-12-10T08:36:46.000Z</time>
      </trkpt>
      <trkpt lat="43.31019" lon="6.46698">
        <ele>487</ele>
        <time>2025-12-10T08:36:58.000Z</time>
      </trkpt>
      <trkpt lat="43.31012" lon="6.46689">
        <ele>489</ele>
        <time>2025-12-10T08:37:10.000Z</time>
      </trkpt>
      <trkpt lat="43.31004" lon="6.4668">
        <ele>490</ele>
        <time>2025-12-10T08:37:22.000Z</time>
      </trkpt>
      <trkpt lat="43.30998" lon="6.4667">
        <ele>491</ele>
        <time>2025-12-10T08:37:31.000Z</time>
      </trkpt>
      <trkpt lat="43.30992" lon="6.46659">
        <ele>492</ele>
        <time>2025-12-10T08:37:43.000Z</time>
      </trkpt>
      <trkpt lat="43.30984" lon="6.46649">
        <ele>493</ele>
        <time>2025-12-10T08:37:55.000Z</time>
      </trkpt>
      <trkpt lat="43.30976" lon="6.46639">
        <ele>494</ele>
        <time>2025-12-10T08:38:07.000Z</time>
      </trkpt>
      <trkpt lat="43.3097" lon="6.4663">
        <ele>496</ele>
        <time>2025-12-10T08:38:16.000Z</time>
      </trkpt>
      <trkpt lat="43.30965" lon="6.4662">
        <ele>497</ele>
        <time>2025-12-10T08:38:25.000Z</time>
      </trkpt>
      <trkpt lat="43.30958" lon="6.4661">
        <ele>498</ele>
        <time>2025-12-10T08:38:37.000Z</time>
      </trkpt>
      <trkpt lat="43.30951" lon="6.46601">
        <ele>500</ele>
        <time>2025-12-10T08:38:49.000Z</time>
      </trkpt>
      <trkpt lat="43.30944" lon="6.46591">
        <ele>501</ele>
        <time>2025-12-10T08:39:01.000Z</time>
      </trkpt>
      <trkpt lat="43.30936" lon="6.46582">
        <ele>503</ele>
        <time>2025-12-10T08:39:13.000Z</time>
      </trkpt>
      <trkpt lat="43.3093" lon="6.46572">
        <ele>505</ele>
        <time>2025-12-10T08:39:25.000Z</time>
      </trkpt>
      <trkpt lat="43.30935" lon="6.46565">
        <ele>507</ele>
        <time>2025-12-10T08:39:46.000Z</time>
      </trkpt>
      <trkpt lat="43.30943" lon="6.46569">
        <ele>509</ele>
        <time>2025-12-10T08:40:01.000Z</time>
      </trkpt>
      <trkpt lat="43.30951" lon="6.46575">
        <ele>511</ele>
        <time>2025-12-10T08:40:16.000Z</time>
      </trkpt>
      <trkpt lat="43.30958" lon="6.46574">
        <ele>513</ele>
        <time>2025-12-10T08:40:28.000Z</time>
      </trkpt>
      <trkpt lat="43.30952" lon="6.46567">
        <ele>514</ele>
        <time>2025-12-10T08:40:43.000Z</time>
      </trkpt>
      <trkpt lat="43.30945" lon="6.46559">
        <ele>516</ele>
        <time>2025-12-10T08:40:55.000Z</time>
      </trkpt>
      <trkpt lat="43.30937" lon="6.46551">
        <ele>518</ele>
        <time>2025-12-10T08:41:10.000Z</time>
      </trkpt>
      <trkpt lat="43.30931" lon="6.46543">
        <ele>520</ele>
        <time>2025-12-10T08:41:25.000Z</time>
      </trkpt>
      <trkpt lat="43.30923" lon="6.46537">
        <ele>523</ele>
        <time>2025-12-10T08:41:37.000Z</time>
      </trkpt>
      <trkpt lat="43.30916" lon="6.46526">
        <ele>525</ele>
        <time>2025-12-10T08:41:52.000Z</time>
      </trkpt>
      <trkpt lat="43.30909" lon="6.46517">
        <ele>527</ele>
        <time>2025-12-10T08:42:04.000Z</time>
      </trkpt>
      <trkpt lat="43.30901" lon="6.46508">
        <ele>529</ele>
        <time>2025-12-10T08:42:19.000Z</time>
      </trkpt>
      <trkpt lat="43.30893" lon="6.465">
        <ele>530</ele>
        <time>2025-12-10T08:42:37.000Z</time>
      </trkpt>
      <trkpt lat="43.30885" lon="6.46493">
        <ele>532</ele>
        <time>2025-12-10T08:42:49.000Z</time>
      </trkpt>
      <trkpt lat="43.30878" lon="6.46484">
        <ele>533</ele>
        <time>2025-12-10T08:43:01.000Z</time>
      </trkpt>
      <trkpt lat="43.30871" lon="6.46475">
        <ele>535</ele>
        <time>2025-12-10T08:43:13.000Z</time>
      </trkpt>
      <trkpt lat="43.30864" lon="6.46464">
        <ele>536</ele>
        <time>2025-12-10T08:43:25.000Z</time>
      </trkpt>
      <trkpt lat="43.30857" lon="6.46454">
        <ele>537</ele>
        <time>2025-12-10T08:43:37.000Z</time>
      </trkpt>
      <trkpt lat="43.30849" lon="6.46446">
        <ele>539</ele>
        <time>2025-12-10T08:43:49.000Z</time>
      </trkpt>
      <trkpt lat="43.30844" lon="6.46436">
        <ele>540</ele>
        <time>2025-12-10T08:43:58.000Z</time>
      </trkpt>
      <trkpt lat="43.30837" lon="6.46424">
        <ele>542</ele>
        <time>2025-12-10T08:44:10.000Z</time>
      </trkpt>
      <trkpt lat="43.30834" lon="6.46412">
        <ele>543</ele>
        <time>2025-12-10T08:44:22.000Z</time>
      </trkpt>
      <trkpt lat="43.30836" lon="6.46398">
        <ele>544</ele>
        <time>2025-12-10T08:44:37.000Z</time>
      </trkpt>
      <trkpt lat="43.30838" lon="6.46384">
        <ele>544</ele>
        <time>2025-12-10T08:44:46.000Z</time>
      </trkpt>
      <trkpt lat="43.30839" lon="6.46372">
        <ele>544</ele>
        <time>2025-12-10T08:44:58.000Z</time>
      </trkpt>
      <trkpt lat="43.30837" lon="6.46363">
        <ele>544</ele>
        <time>2025-12-10T08:51:50.000Z</time>
      </trkpt>
      <trkpt lat="43.30837" lon="6.46372">
        <ele>545</ele>
        <time>2025-12-10T08:53:32.000Z</time>
      </trkpt>
      <trkpt lat="43.30829" lon="6.46378">
        <ele>546</ele>
        <time>2025-12-10T08:56:19.000Z</time>
      </trkpt>
      <trkpt lat="43.3082" lon="6.46382">
        <ele>548</ele>
        <time>2025-12-10T08:56:34.000Z</time>
      </trkpt>
      <trkpt lat="43.30813" lon="6.46376">
        <ele>550</ele>
        <time>2025-12-10T08:57:04.000Z</time>
      </trkpt>
      <trkpt lat="43.30805" lon="6.46369">
        <ele>552</ele>
        <time>2025-12-10T08:57:16.000Z</time>
      </trkpt>
      <trkpt lat="43.30797" lon="6.46362">
        <ele>554</ele>
        <time>2025-12-10T08:57:31.000Z</time>
      </trkpt>
      <trkpt lat="43.30789" lon="6.46354">
        <ele>555</ele>
        <time>2025-12-10T08:57:43.000Z</time>
      </trkpt>
      <trkpt lat="43.30782" lon="6.46346">
        <ele>557</ele>
        <time>2025-12-10T08:57:58.000Z</time>
      </trkpt>
      <trkpt lat="43.30775" lon="6.46338">
        <ele>558</ele>
        <time>2025-12-10T08:58:13.000Z</time>
      </trkpt>
      <trkpt lat="43.30767" lon="6.46331">
        <ele>560</ele>
        <time>2025-12-10T08:58:28.000Z</time>
      </trkpt>
      <trkpt lat="43.30759" lon="6.46323">
        <ele>561</ele>
        <time>2025-12-10T08:58:40.000Z</time>
      </trkpt>
      <trkpt lat="43.30752" lon="6.46314">
        <ele>562</ele>
        <time>2025-12-10T08:58:58.000Z</time>
      </trkpt>
      <trkpt lat="43.30744" lon="6.46306">
        <ele>564</ele>
        <time>2025-12-10T08:59:13.000Z</time>
      </trkpt>
      <trkpt lat="43.30735" lon="6.46305">
        <ele>565</ele>
        <time>2025-12-10T08:59:25.000Z</time>
      </trkpt>
      <trkpt lat="43.3073" lon="6.46314">
        <ele>567</ele>
        <time>2025-12-10T08:59:46.000Z</time>
      </trkpt>
      <trkpt lat="43.30725" lon="6.46325">
        <ele>569</ele>
        <time>2025-12-10T09:00:01.000Z</time>
      </trkpt>
      <trkpt lat="43.30715" lon="6.46327">
        <ele>571</ele>
        <time>2025-12-10T09:00:13.000Z</time>
      </trkpt>
      <trkpt lat="43.30705" lon="6.46324">
        <ele>572</ele>
        <time>2025-12-10T09:00:25.000Z</time>
      </trkpt>
      <trkpt lat="43.30697" lon="6.46319">
        <ele>574</ele>
        <time>2025-12-10T09:00:37.000Z</time>
      </trkpt>
      <trkpt lat="43.30688" lon="6.46312">
        <ele>575</ele>
        <time>2025-12-10T09:00:52.000Z</time>
      </trkpt>
      <trkpt lat="43.30681" lon="6.46304">
        <ele>577</ele>
        <time>2025-12-10T09:01:04.000Z</time>
      </trkpt>
      <trkpt lat="43.30675" lon="6.46294">
        <ele>578</ele>
        <time>2025-12-10T09:01:16.000Z</time>
      </trkpt>
      <trkpt lat="43.30669" lon="6.46284">
        <ele>579</ele>
        <time>2025-12-10T09:01:31.000Z</time>
      </trkpt>
      <trkpt lat="43.30664" lon="6.46272">
        <ele>580</ele>
        <time>2025-12-10T09:01:43.000Z</time>
      </trkpt>
      <trkpt lat="43.30659" lon="6.4626">
        <ele>580</ele>
        <time>2025-12-10T09:01:58.000Z</time>
      </trkpt>
      <trkpt lat="43.30653" lon="6.46248">
        <ele>580</ele>
        <time>2025-12-10T09:02:13.000Z</time>
      </trkpt>
      <trkpt lat="43.30647" lon="6.46238">
        <ele>580</ele>
        <time>2025-12-10T09:02:25.000Z</time>
      </trkpt>
      <trkpt lat="43.30641" lon="6.4623">
        <ele>580</ele>
        <time>2025-12-10T09:02:37.000Z</time>
      </trkpt>
      <trkpt lat="43.30632" lon="6.46226">
        <ele>579</ele>
        <time>2025-12-10T09:02:55.000Z</time>
      </trkpt>
      <trkpt lat="43.30623" lon="6.4622">
        <ele>579</ele>
        <time>2025-12-10T09:03:10.000Z</time>
      </trkpt>
      <trkpt lat="43.30615" lon="6.46217">
        <ele>580</ele>
        <time>2025-12-10T09:03:19.000Z</time>
      </trkpt>
      <trkpt lat="43.30607" lon="6.46225">
        <ele>580</ele>
        <time>2025-12-10T09:03:34.000Z</time>
      </trkpt>
      <trkpt lat="43.30599" lon="6.46232">
        <ele>581</ele>
        <time>2025-12-10T09:03:46.000Z</time>
      </trkpt>
      <trkpt lat="43.3059" lon="6.46235">
        <ele>582</ele>
        <time>2025-12-10T09:04:04.000Z</time>
      </trkpt>
      <trkpt lat="43.30581" lon="6.46239">
        <ele>584</ele>
        <time>2025-12-10T09:04:22.000Z</time>
      </trkpt>
      <trkpt lat="43.30574" lon="6.46245">
        <ele>587</ele>
        <time>2025-12-10T09:04:43.000Z</time>
      </trkpt>
      <trkpt lat="43.30567" lon="6.46253">
        <ele>590</ele>
        <time>2025-12-10T09:04:58.000Z</time>
      </trkpt>
      <trkpt lat="43.3056" lon="6.46262">
        <ele>593</ele>
        <time>2025-12-10T09:05:13.000Z</time>
      </trkpt>
      <trkpt lat="43.30552" lon="6.46271">
        <ele>596</ele>
        <time>2025-12-10T09:10:46.000Z</time>
      </trkpt>
      <trkpt lat="43.30544" lon="6.46273">
        <ele>599</ele>
        <time>2025-12-10T09:11:34.000Z</time>
      </trkpt>
      <trkpt lat="43.30534" lon="6.46271">
        <ele>602</ele>
        <time>2025-12-10T09:11:52.000Z</time>
      </trkpt>
      <trkpt lat="43.30525" lon="6.46268">
        <ele>605</ele>
        <time>2025-12-10T09:12:19.000Z</time>
      </trkpt>
      <trkpt lat="43.30517" lon="6.46266">
        <ele>608</ele>
        <time>2025-12-10T09:12:37.000Z</time>
      </trkpt>
      <trkpt lat="43.30509" lon="6.46261">
        <ele>611</ele>
        <time>2025-12-10T09:12:58.000Z</time>
      </trkpt>
      <trkpt lat="43.305" lon="6.46254">
        <ele>614</ele>
        <time>2025-12-10T09:13:16.000Z</time>
      </trkpt>
      <trkpt lat="43.30494" lon="6.46245">
        <ele>617</ele>
        <time>2025-12-10T09:13:34.000Z</time>
      </trkpt>
      <trkpt lat="43.30486" lon="6.46238">
        <ele>620</ele>
        <time>2025-12-10T09:13:52.000Z</time>
      </trkpt>
      <trkpt lat="43.30477" lon="6.46239">
        <ele>622</ele>
        <time>2025-12-10T09:14:25.000Z</time>
      </trkpt>
      <trkpt lat="43.30469" lon="6.46234">
        <ele>624</ele>
        <time>2025-12-10T09:14:52.000Z</time>
      </trkpt>
      <trkpt lat="43.3046" lon="6.4623">
        <ele>626</ele>
        <time>2025-12-10T09:15:04.000Z</time>
      </trkpt>
      <trkpt lat="43.30451" lon="6.46231">
        <ele>627</ele>
        <time>2025-12-10T09:15:16.000Z</time>
      </trkpt>
      <trkpt lat="43.30443" lon="6.46236">
        <ele>629</ele>
        <time>2025-12-10T09:15:31.000Z</time>
      </trkpt>
      <trkpt lat="43.30433" lon="6.46239">
        <ele>631</ele>
        <time>2025-12-10T09:15:43.000Z</time>
      </trkpt>
      <trkpt lat="43.30424" lon="6.4624">
        <ele>633</ele>
        <time>2025-12-10T09:15:55.000Z</time>
      </trkpt>
      <trkpt lat="43.30414" lon="6.46237">
        <ele>634</ele>
        <time>2025-12-10T09:16:07.000Z</time>
      </trkpt>
      <trkpt lat="43.30405" lon="6.46232">
        <ele>637</ele>
        <time>2025-12-10T09:16:19.000Z</time>
      </trkpt>
      <trkpt lat="43.30396" lon="6.46229">
        <ele>639</ele>
        <time>2025-12-10T09:16:40.000Z</time>
      </trkpt>
      <trkpt lat="43.30387" lon="6.46225">
        <ele>641</ele>
        <time>2025-12-10T09:17:01.000Z</time>
      </trkpt>
      <trkpt lat="43.30377" lon="6.46227">
        <ele>643</ele>
        <time>2025-12-10T09:17:40.000Z</time>
      </trkpt>
      <trkpt lat="43.30368" lon="6.4623">
        <ele>645</ele>
        <time>2025-12-10T09:17:55.000Z</time>
      </trkpt>
      <trkpt lat="43.30359" lon="6.46235">
        <ele>647</ele>
        <time>2025-12-10T09:18:13.000Z</time>
      </trkpt>
      <trkpt lat="43.30352" lon="6.4623">
        <ele>647</ele>
        <time>2025-12-10T09:18:58.000Z</time>
      </trkpt>
      <trkpt lat="43.30345" lon="6.46223">
        <ele>648</ele>
        <time>2025-12-10T09:23:14.000Z</time>
      </trkpt>
      <trkpt lat="43.30339" lon="6.46214">
        <ele>649</ele>
        <time>2025-12-10T09:23:23.000Z</time>
      </trkpt>
      <trkpt lat="43.30329" lon="6.46212">
        <ele>649</ele>
        <time>2025-12-10T09:23:35.000Z</time>
      </trkpt>
      <trkpt lat="43.30321" lon="6.46216">
        <ele>649</ele>
        <time>2025-12-10T09:23:50.000Z</time>
      </trkpt>
      <trkpt lat="43.30312" lon="6.46222">
        <ele>649</ele>
        <time>2025-12-10T09:24:02.000Z</time>
      </trkpt>
      <trkpt lat="43.30304" lon="6.46226">
        <ele>648</ele>
        <time>2025-12-10T09:24:17.000Z</time>
      </trkpt>
      <trkpt lat="43.303" lon="6.46216">
        <ele>648</ele>
        <time>2025-12-10T09:26:23.000Z</time>
      </trkpt>
      <trkpt lat="43.30297" lon="6.46203">
        <ele>648</ele>
        <time>2025-12-10T09:26:32.000Z</time>
      </trkpt>
      <trkpt lat="43.30292" lon="6.46192">
        <ele>648</ele>
        <time>2025-12-10T09:26:41.000Z</time>
      </trkpt>
      <trkpt lat="43.30288" lon="6.46181">
        <ele>648</ele>
        <time>2025-12-10T09:26:50.000Z</time>
      </trkpt>
      <trkpt lat="43.30286" lon="6.46168">
        <ele>648</ele>
        <time>2025-12-10T09:26:59.000Z</time>
      </trkpt>
      <trkpt lat="43.30281" lon="6.46156">
        <ele>648</ele>
        <time>2025-12-10T09:27:08.000Z</time>
      </trkpt>
      <trkpt lat="43.30279" lon="6.46141">
        <ele>649</ele>
        <time>2025-12-10T09:27:17.000Z</time>
      </trkpt>
      <trkpt lat="43.30281" lon="6.46128">
        <ele>649</ele>
        <time>2025-12-10T09:27:23.000Z</time>
      </trkpt>
      <trkpt lat="43.30281" lon="6.46114">
        <ele>650</ele>
        <time>2025-12-10T09:27:35.000Z</time>
      </trkpt>
      <trkpt lat="43.30276" lon="6.46101">
        <ele>651</ele>
        <time>2025-12-10T09:27:47.000Z</time>
      </trkpt>
      <trkpt lat="43.30271" lon="6.46088">
        <ele>652</ele>
        <time>2025-12-10T09:27:59.000Z</time>
      </trkpt>
      <trkpt lat="43.3027" lon="6.46075">
        <ele>653</ele>
        <time>2025-12-10T09:28:08.000Z</time>
      </trkpt>
      <trkpt lat="43.30267" lon="6.46062">
        <ele>654</ele>
        <time>2025-12-10T09:28:20.000Z</time>
      </trkpt>
      <trkpt lat="43.30265" lon="6.46047">
        <ele>655</ele>
        <time>2025-12-10T09:28:32.000Z</time>
      </trkpt>
      <trkpt lat="43.30263" lon="6.46034">
        <ele>656</ele>
        <time>2025-12-10T09:28:44.000Z</time>
      </trkpt>
      <trkpt lat="43.30264" lon="6.46022">
        <ele>656</ele>
        <time>2025-12-10T09:28:53.000Z</time>
      </trkpt>
      <trkpt lat="43.30265" lon="6.46008">
        <ele>656</ele>
        <time>2025-12-10T09:29:05.000Z</time>
      </trkpt>
      <trkpt lat="43.30264" lon="6.45994">
        <ele>656</ele>
        <time>2025-12-10T09:29:17.000Z</time>
      </trkpt>
      <trkpt lat="43.30264" lon="6.45981">
        <ele>656</ele>
        <time>2025-12-10T09:29:26.000Z</time>
      </trkpt>
      <trkpt lat="43.30264" lon="6.45968">
        <ele>656</ele>
        <time>2025-12-10T09:29:35.000Z</time>
      </trkpt>
      <trkpt lat="43.30262" lon="6.45956">
        <ele>656</ele>
        <time>2025-12-10T09:29:44.000Z</time>
      </trkpt>
      <trkpt lat="43.30258" lon="6.45944">
        <ele>657</ele>
        <time>2025-12-10T09:29:53.000Z</time>
      </trkpt>
      <trkpt lat="43.30252" lon="6.45934">
        <ele>657</ele>
        <time>2025-12-10T09:30:02.000Z</time>
      </trkpt>
      <trkpt lat="43.30246" lon="6.45924">
        <ele>657</ele>
        <time>2025-12-10T09:30:11.000Z</time>
      </trkpt>
      <trkpt lat="43.30238" lon="6.45915">
        <ele>658</ele>
        <time>2025-12-10T09:30:23.000Z</time>
      </trkpt>
      <trkpt lat="43.30231" lon="6.45906">
        <ele>659</ele>
        <time>2025-12-10T09:30:32.000Z</time>
      </trkpt>
      <trkpt lat="43.30225" lon="6.45898">
        <ele>660</ele>
        <time>2025-12-10T09:30:41.000Z</time>
      </trkpt>
      <trkpt lat="43.30219" lon="6.45889">
        <ele>661</ele>
        <time>2025-12-10T09:30:53.000Z</time>
      </trkpt>
      <trkpt lat="43.30214" lon="6.45876">
        <ele>662</ele>
        <time>2025-12-10T09:31:06.000Z</time>
      </trkpt>
      <trkpt lat="43.30208" lon="6.45864">
        <ele>663</ele>
        <time>2025-12-10T09:31:18.000Z</time>
      </trkpt>
      <trkpt lat="43.30204" lon="6.45852">
        <ele>664</ele>
        <time>2025-12-10T09:31:30.000Z</time>
      </trkpt>
      <trkpt lat="43.302" lon="6.4584">
        <ele>665</ele>
        <time>2025-12-10T09:31:50.000Z</time>
      </trkpt>
      <trkpt lat="43.30197" lon="6.45828">
        <ele>666</ele>
        <time>2025-12-10T09:32:02.000Z</time>
      </trkpt>
      <trkpt lat="43.30193" lon="6.45816">
        <ele>667</ele>
        <time>2025-12-10T09:32:11.000Z</time>
      </trkpt>
      <trkpt lat="43.30191" lon="6.45802">
        <ele>669</ele>
        <time>2025-12-10T09:32:26.000Z</time>
      </trkpt>
      <trkpt lat="43.3019" lon="6.45788">
        <ele>669</ele>
        <time>2025-12-10T09:32:38.000Z</time>
      </trkpt>
      <trkpt lat="43.30191" lon="6.45774">
        <ele>670</ele>
        <time>2025-12-10T09:32:50.000Z</time>
      </trkpt>
      <trkpt lat="43.3019" lon="6.4576">
        <ele>670</ele>
        <time>2025-12-10T09:33:02.000Z</time>
      </trkpt>
      <trkpt lat="43.30189" lon="6.45747">
        <ele>671</ele>
        <time>2025-12-10T09:37:33.000Z</time>
      </trkpt>
      <trkpt lat="43.30186" lon="6.45733">
        <ele>671</ele>
        <time>2025-12-10T09:37:45.000Z</time>
      </trkpt>
      <trkpt lat="43.3018" lon="6.45723">
        <ele>671</ele>
        <time>2025-12-10T09:37:54.000Z</time>
      </trkpt>
      <trkpt lat="43.30174" lon="6.45712">
        <ele>671</ele>
        <time>2025-12-10T09:38:03.000Z</time>
      </trkpt>
      <trkpt lat="43.30166" lon="6.45705">
        <ele>671</ele>
        <time>2025-12-10T09:38:12.000Z</time>
      </trkpt>
      <trkpt lat="43.30157" lon="6.45705">
        <ele>671</ele>
        <time>2025-12-10T09:38:21.000Z</time>
      </trkpt>
      <trkpt lat="43.30148" lon="6.45702">
        <ele>671</ele>
        <time>2025-12-10T09:38:30.000Z</time>
      </trkpt>
      <trkpt lat="43.3014" lon="6.45694">
        <ele>671</ele>
        <time>2025-12-10T09:38:39.000Z</time>
      </trkpt>
      <trkpt lat="43.30132" lon="6.45689">
        <ele>671</ele>
        <time>2025-12-10T09:38:48.000Z</time>
      </trkpt>
      <trkpt lat="43.30123" lon="6.45685">
        <ele>672</ele>
        <time>2025-12-10T09:38:57.000Z</time>
      </trkpt>
      <trkpt lat="43.30117" lon="6.45675">
        <ele>672</ele>
        <time>2025-12-10T09:39:06.000Z</time>
      </trkpt>
      <trkpt lat="43.30111" lon="6.45664">
        <ele>672</ele>
        <time>2025-12-10T09:39:15.000Z</time>
      </trkpt>
      <trkpt lat="43.30102" lon="6.45655">
        <ele>672</ele>
        <time>2025-12-10T09:39:27.000Z</time>
      </trkpt>
      <trkpt lat="43.30095" lon="6.45649">
        <ele>671</ele>
        <time>2025-12-10T09:39:36.000Z</time>
      </trkpt>
      <trkpt lat="43.30085" lon="6.45645">
        <ele>671</ele>
        <time>2025-12-10T09:39:45.000Z</time>
      </trkpt>
      <trkpt lat="43.30075" lon="6.45644">
        <ele>671</ele>
        <time>2025-12-10T09:39:57.000Z</time>
      </trkpt>
      <trkpt lat="43.30071" lon="6.45634">
        <ele>670</ele>
        <time>2025-12-10T09:40:09.000Z</time>
      </trkpt>
      <trkpt lat="43.30067" lon="6.45623">
        <ele>670</ele>
        <time>2025-12-10T09:40:18.000Z</time>
      </trkpt>
      <trkpt lat="43.3006" lon="6.45614">
        <ele>670</ele>
        <time>2025-12-10T09:40:27.000Z</time>
      </trkpt>
      <trkpt lat="43.30052" lon="6.45609">
        <ele>671</ele>
        <time>2025-12-10T09:43:22.000Z</time>
      </trkpt>
      <trkpt lat="43.30044" lon="6.45604">
        <ele>671</ele>
        <time>2025-12-10T09:43:31.000Z</time>
      </trkpt>
      <trkpt lat="43.30035" lon="6.45606">
        <ele>672</ele>
        <time>2025-12-10T09:43:40.000Z</time>
      </trkpt>
      <trkpt lat="43.30027" lon="6.45617">
        <ele>672</ele>
        <time>2025-12-10T09:43:55.000Z</time>
      </trkpt>
      <trkpt lat="43.30022" lon="6.45628">
        <ele>673</ele>
        <time>2025-12-10T09:44:04.000Z</time>
      </trkpt>
      <trkpt lat="43.30017" lon="6.4564">
        <ele>673</ele>
        <time>2025-12-10T09:44:16.000Z</time>
      </trkpt>
      <trkpt lat="43.30012" lon="6.45651">
        <ele>673</ele>
        <time>2025-12-10T09:44:25.000Z</time>
      </trkpt>
      <trkpt lat="43.30007" lon="6.45664">
        <ele>673</ele>
        <time>2025-12-10T09:44:37.000Z</time>
      </trkpt>
      <trkpt lat="43.30004" lon="6.45674">
        <ele>673</ele>
        <time>2025-12-10T09:44:52.000Z</time>
      </trkpt>
      <trkpt lat="43.29999" lon="6.45667">
        <ele>673</ele>
        <time>2025-12-10T09:49:49.000Z</time>
      </trkpt>
      <trkpt lat="43.2999" lon="6.45663">
        <ele>673</ele>
        <time>2025-12-10T09:50:01.000Z</time>
      </trkpt>
      <trkpt lat="43.29983" lon="6.45653">
        <ele>674</ele>
        <time>2025-12-10T09:50:10.000Z</time>
      </trkpt>
      <trkpt lat="43.29981" lon="6.45639">
        <ele>675</ele>
        <time>2025-12-10T09:50:22.000Z</time>
      </trkpt>
      <trkpt lat="43.2998" lon="6.45624">
        <ele>676</ele>
        <time>2025-12-10T09:50:34.000Z</time>
      </trkpt>
      <trkpt lat="43.29976" lon="6.45613">
        <ele>677</ele>
        <time>2025-12-10T09:50:46.000Z</time>
      </trkpt>
      <trkpt lat="43.29975" lon="6.45599">
        <ele>678</ele>
        <time>2025-12-10T09:50:58.000Z</time>
      </trkpt>
      <trkpt lat="43.29978" lon="6.45587">
        <ele>678</ele>
        <time>2025-12-10T09:51:10.000Z</time>
      </trkpt>
      <trkpt lat="43.29977" lon="6.45575">
        <ele>679</ele>
        <time>2025-12-10T09:51:22.000Z</time>
      </trkpt>
      <trkpt lat="43.29973" lon="6.45562">
        <ele>680</ele>
        <time>2025-12-10T09:51:34.000Z</time>
      </trkpt>
      <trkpt lat="43.29969" lon="6.45551">
        <ele>681</ele>
        <time>2025-12-10T09:51:46.000Z</time>
      </trkpt>
      <trkpt lat="43.29968" lon="6.4554">
        <ele>682</ele>
        <time>2025-12-10T09:52:16.000Z</time>
      </trkpt>
      <trkpt lat="43.29971" lon="6.4553">
        <ele>682</ele>
        <time>2025-12-10T09:52:34.000Z</time>
      </trkpt>
      <trkpt lat="43.29977" lon="6.45529">
        <ele>682</ele>
        <time>2025-12-10T09:52:49.000Z</time>
      </trkpt>
      <trkpt lat="43.29971" lon="6.45535">
        <ele>681</ele>
        <time>2025-12-10T09:54:19.000Z</time>
      </trkpt>
      <trkpt lat="43.29964" lon="6.45532">
        <ele>681</ele>
        <time>2025-12-10T09:54:52.000Z</time>
      </trkpt>
      <trkpt lat="43.29958" lon="6.45521">
        <ele>682</ele>
        <time>2025-12-10T09:55:10.000Z</time>
      </trkpt>
      <trkpt lat="43.29955" lon="6.45508">
        <ele>682</ele>
        <time>2025-12-10T09:55:22.000Z</time>
      </trkpt>
      <trkpt lat="43.29954" lon="6.45495">
        <ele>682</ele>
        <time>2025-12-10T09:55:43.000Z</time>
      </trkpt>
      <trkpt lat="43.29955" lon="6.45482">
        <ele>682</ele>
        <time>2025-12-10T09:56:10.000Z</time>
      </trkpt>
      <trkpt lat="43.29956" lon="6.4547">
        <ele>681</ele>
        <time>2025-12-10T09:56:19.000Z</time>
      </trkpt>
      <trkpt lat="43.29953" lon="6.45458">
        <ele>681</ele>
        <time>2025-12-10T09:56:31.000Z</time>
      </trkpt>
      <trkpt lat="43.29953" lon="6.45445">
        <ele>681</ele>
        <time>2025-12-10T09:56:40.000Z</time>
      </trkpt>
      <trkpt lat="43.29953" lon="6.45432">
        <ele>681</ele>
        <time>2025-12-10T09:56:52.000Z</time>
      </trkpt>
      <trkpt lat="43.29952" lon="6.45418">
        <ele>680</ele>
        <time>2025-12-10T09:57:07.000Z</time>
      </trkpt>
      <trkpt lat="43.29949" lon="6.45406">
        <ele>679</ele>
        <time>2025-12-10T09:57:19.000Z</time>
      </trkpt>
      <trkpt lat="43.29949" lon="6.45393">
        <ele>678</ele>
        <time>2025-12-10T09:57:34.000Z</time>
      </trkpt>
      <trkpt lat="43.2995" lon="6.4538">
        <ele>677</ele>
        <time>2025-12-10T09:57:52.000Z</time>
      </trkpt>
      <trkpt lat="43.29945" lon="6.45369">
        <ele>676</ele>
        <time>2025-12-10T09:58:07.000Z</time>
      </trkpt>
      <trkpt lat="43.29942" lon="6.45357">
        <ele>674</ele>
        <time>2025-12-10T09:58:16.000Z</time>
      </trkpt>
      <trkpt lat="43.2994" lon="6.45344">
        <ele>673</ele>
        <time>2025-12-10T09:58:34.000Z</time>
      </trkpt>
      <trkpt lat="43.29939" lon="6.45332">
        <ele>672</ele>
        <time>2025-12-10T09:58:43.000Z</time>
      </trkpt>
      <trkpt lat="43.29939" lon="6.45317">
        <ele>670</ele>
        <time>2025-12-10T09:59:01.000Z</time>
      </trkpt>
      <trkpt lat="43.2994" lon="6.45304">
        <ele>669</ele>
        <time>2025-12-10T09:59:16.000Z</time>
      </trkpt>
      <trkpt lat="43.29943" lon="6.45292">
        <ele>668</ele>
        <time>2025-12-10T09:59:31.000Z</time>
      </trkpt>
      <trkpt lat="43.29943" lon="6.45279">
        <ele>667</ele>
        <time>2025-12-10T09:59:49.000Z</time>
      </trkpt>
      <trkpt lat="43.29939" lon="6.45269">
        <ele>666</ele>
        <time>2025-12-10T10:00:19.000Z</time>
      </trkpt>
      <trkpt lat="43.29934" lon="6.45258">
        <ele>665</ele>
        <time>2025-12-10T10:00:37.000Z</time>
      </trkpt>
      <trkpt lat="43.29928" lon="6.45248">
        <ele>665</ele>
        <time>2025-12-10T10:00:49.000Z</time>
      </trkpt>
      <trkpt lat="43.29922" lon="6.45238">
        <ele>664</ele>
        <time>2025-12-10T10:00:58.000Z</time>
      </trkpt>
      <trkpt lat="43.2992" lon="6.45224">
        <ele>663</ele>
        <time>2025-12-10T10:01:10.000Z</time>
      </trkpt>
      <trkpt lat="43.29917" lon="6.45211">
        <ele>661</ele>
        <time>2025-12-10T10:01:19.000Z</time>
      </trkpt>
      <trkpt lat="43.29915" lon="6.45199">
        <ele>659</ele>
        <time>2025-12-10T10:01:28.000Z</time>
      </trkpt>
      <trkpt lat="43.29917" lon="6.45186">
        <ele>656</ele>
        <time>2025-12-10T10:01:58.000Z</time>
      </trkpt>
      <trkpt lat="43.29921" lon="6.45176">
        <ele>652</ele>
        <time>2025-12-10T10:02:28.000Z</time>
      </trkpt>
      <trkpt lat="43.29928" lon="6.4517">
        <ele>649</ele>
        <time>2025-12-10T10:03:19.000Z</time>
      </trkpt>
      <trkpt lat="43.2993" lon="6.45158">
        <ele>646</ele>
        <time>2025-12-10T10:04:13.000Z</time>
      </trkpt>
      <trkpt lat="43.29929" lon="6.45145">
        <ele>643</ele>
        <time>2025-12-10T10:05:07.000Z</time>
      </trkpt>
      <trkpt lat="43.29928" lon="6.45133">
        <ele>640</ele>
        <time>2025-12-10T10:05:43.000Z</time>
      </trkpt>
      <trkpt lat="43.29925" lon="6.45121">
        <ele>637</ele>
        <time>2025-12-10T10:06:10.000Z</time>
      </trkpt>
      <trkpt lat="43.29924" lon="6.45109">
        <ele>634</ele>
        <time>2025-12-10T10:06:43.000Z</time>
      </trkpt>
      <trkpt lat="43.29922" lon="6.45097">
        <ele>631</ele>
        <time>2025-12-10T10:07:10.000Z</time>
      </trkpt>
      <trkpt lat="43.29921" lon="6.45085">
        <ele>628</ele>
        <time>2025-12-10T10:07:46.000Z</time>
      </trkpt>
      <trkpt lat="43.29922" lon="6.45073">
        <ele>626</ele>
        <time>2025-12-10T10:08:10.000Z</time>
      </trkpt>
      <trkpt lat="43.29922" lon="6.4506">
        <ele>623</ele>
        <time>2025-12-10T10:08:28.000Z</time>
      </trkpt>
      <trkpt lat="43.29922" lon="6.45047">
        <ele>622</ele>
        <time>2025-12-10T10:08:46.000Z</time>
      </trkpt>
      <trkpt lat="43.29921" lon="6.45033">
        <ele>621</ele>
        <time>2025-12-10T10:09:01.000Z</time>
      </trkpt>
      <trkpt lat="43.29919" lon="6.45019">
        <ele>619</ele>
        <time>2025-12-10T10:09:13.000Z</time>
      </trkpt>
      <trkpt lat="43.29919" lon="6.45009">
        <ele>618</ele>
        <time>2025-12-10T10:09:34.000Z</time>
      </trkpt>
      <trkpt lat="43.29927" lon="6.45016">
        <ele>617</ele>
        <time>2025-12-10T10:12:55.000Z</time>
      </trkpt>
      <trkpt lat="43.29933" lon="6.45027">
        <ele>616</ele>
        <time>2025-12-10T10:13:04.000Z</time>
      </trkpt>
      <trkpt lat="43.29939" lon="6.45038">
        <ele>615</ele>
        <time>2025-12-10T10:13:19.000Z</time>
      </trkpt>
      <trkpt lat="43.29947" lon="6.4505">
        <ele>615</ele>
        <time>2025-12-10T10:13:30.000Z</time>
      </trkpt>
      <trkpt lat="43.29955" lon="6.45062">
        <ele>614</ele>
        <time>2025-12-10T10:13:42.000Z</time>
      </trkpt>
      <trkpt lat="43.29962" lon="6.45072">
        <ele>613</ele>
        <time>2025-12-10T10:13:51.000Z</time>
      </trkpt>
      <trkpt lat="43.29971" lon="6.4508">
        <ele>612</ele>
        <time>2025-12-10T10:14:00.000Z</time>
      </trkpt>
      <trkpt lat="43.29979" lon="6.45084">
        <ele>612</ele>
        <time>2025-12-10T10:14:09.000Z</time>
      </trkpt>
      <trkpt lat="43.29989" lon="6.45088">
        <ele>611</ele>
        <time>2025-12-10T10:14:18.000Z</time>
      </trkpt>
      <trkpt lat="43.29998" lon="6.45092">
        <ele>611</ele>
        <time>2025-12-10T10:14:27.000Z</time>
      </trkpt>
      <trkpt lat="43.30008" lon="6.45098">
        <ele>610</ele>
        <time>2025-12-10T10:14:36.000Z</time>
      </trkpt>
      <trkpt lat="43.30015" lon="6.45106">
        <ele>609</ele>
        <time>2025-12-10T10:14:45.000Z</time>
      </trkpt>
      <trkpt lat="43.30022" lon="6.45117">
        <ele>608</ele>
        <time>2025-12-10T10:14:54.000Z</time>
      </trkpt>
      <trkpt lat="43.30029" lon="6.45125">
        <ele>607</ele>
        <time>2025-12-10T10:15:03.000Z</time>
      </trkpt>
      <trkpt lat="43.30038" lon="6.45129">
        <ele>607</ele>
        <time>2025-12-10T10:15:15.000Z</time>
      </trkpt>
      <trkpt lat="43.30048" lon="6.45128">
        <ele>607</ele>
        <time>2025-12-10T10:15:24.000Z</time>
      </trkpt>
      <trkpt lat="43.30058" lon="6.45127">
        <ele>607</ele>
        <time>2025-12-10T10:15:36.000Z</time>
      </trkpt>
      <trkpt lat="43.30068" lon="6.4513">
        <ele>607</ele>
        <time>2025-12-10T10:15:45.000Z</time>
      </trkpt>
      <trkpt lat="43.30077" lon="6.45139">
        <ele>606</ele>
        <time>2025-12-10T10:15:54.000Z</time>
      </trkpt>
      <trkpt lat="43.30084" lon="6.45148">
        <ele>606</ele>
        <time>2025-12-10T10:16:03.000Z</time>
      </trkpt>
      <trkpt lat="43.30091" lon="6.45159">
        <ele>605</ele>
        <time>2025-12-10T10:16:12.000Z</time>
      </trkpt>
      <trkpt lat="43.30099" lon="6.45166">
        <ele>605</ele>
        <time>2025-12-10T10:16:21.000Z</time>
      </trkpt>
      <trkpt lat="43.30108" lon="6.4517">
        <ele>605</ele>
        <time>2025-12-10T10:16:30.000Z</time>
      </trkpt>
      <trkpt lat="43.30118" lon="6.45171">
        <ele>605</ele>
        <time>2025-12-10T10:16:39.000Z</time>
      </trkpt>
      <trkpt lat="43.30128" lon="6.45173">
        <ele>604</ele>
        <time>2025-12-10T10:16:48.000Z</time>
      </trkpt>
      <trkpt lat="43.30138" lon="6.45176">
        <ele>604</ele>
        <time>2025-12-10T10:16:57.000Z</time>
      </trkpt>
      <trkpt lat="43.30147" lon="6.45184">
        <ele>603</ele>
        <time>2025-12-10T10:17:06.000Z</time>
      </trkpt>
      <trkpt lat="43.30152" lon="6.45196">
        <ele>603</ele>
        <time>2025-12-10T10:17:15.000Z</time>
      </trkpt>
      <trkpt lat="43.30158" lon="6.45207">
        <ele>602</ele>
        <time>2025-12-10T10:17:24.000Z</time>
      </trkpt>
      <trkpt lat="43.30164" lon="6.45218">
        <ele>601</ele>
        <time>2025-12-10T10:17:33.000Z</time>
      </trkpt>
      <trkpt lat="43.3017" lon="6.45229">
        <ele>600</ele>
        <time>2025-12-10T10:17:42.000Z</time>
      </trkpt>
      <trkpt lat="43.30178" lon="6.4524">
        <ele>600</ele>
        <time>2025-12-10T10:17:51.000Z</time>
      </trkpt>
      <trkpt lat="43.30186" lon="6.45248">
        <ele>600</ele>
        <time>2025-12-10T10:18:00.000Z</time>
      </trkpt>
      <trkpt lat="43.30193" lon="6.45256">
        <ele>600</ele>
        <time>2025-12-10T10:18:09.000Z</time>
      </trkpt>
      <trkpt lat="43.30202" lon="6.45266">
        <ele>599</ele>
        <time>2025-12-10T10:18:18.000Z</time>
      </trkpt>
      <trkpt lat="43.30211" lon="6.45274">
        <ele>599</ele>
        <time>2025-12-10T10:18:27.000Z</time>
      </trkpt>
      <trkpt lat="43.30218" lon="6.45281">
        <ele>598</ele>
        <time>2025-12-10T10:18:36.000Z</time>
      </trkpt>
      <trkpt lat="43.30228" lon="6.45286">
        <ele>598</ele>
        <time>2025-12-10T10:18:45.000Z</time>
      </trkpt>
      <trkpt lat="43.30238" lon="6.45287">
        <ele>598</ele>
        <time>2025-12-10T10:18:54.000Z</time>
      </trkpt>
      <trkpt lat="43.30248" lon="6.4529">
        <ele>598</ele>
        <time>2025-12-10T10:19:03.000Z</time>
      </trkpt>
      <trkpt lat="43.30258" lon="6.45292">
        <ele>597</ele>
        <time>2025-12-10T10:19:12.000Z</time>
      </trkpt>
      <trkpt lat="43.30268" lon="6.453">
        <ele>597</ele>
        <time>2025-12-10T10:19:21.000Z</time>
      </trkpt>
      <trkpt lat="43.30274" lon="6.45311">
        <ele>596</ele>
        <time>2025-12-10T10:19:30.000Z</time>
      </trkpt>
      <trkpt lat="43.30276" lon="6.45324">
        <ele>595</ele>
        <time>2025-12-10T10:19:39.000Z</time>
      </trkpt>
      <trkpt lat="43.30276" lon="6.45337">
        <ele>595</ele>
        <time>2025-12-10T10:19:48.000Z</time>
      </trkpt>
      <trkpt lat="43.30275" lon="6.45351">
        <ele>595</ele>
        <time>2025-12-10T10:19:57.000Z</time>
      </trkpt>
      <trkpt lat="43.30272" lon="6.45364">
        <ele>595</ele>
        <time>2025-12-10T10:20:06.000Z</time>
      </trkpt>
      <trkpt lat="43.30267" lon="6.45377">
        <ele>595</ele>
        <time>2025-12-10T10:20:15.000Z</time>
      </trkpt>
      <trkpt lat="43.30263" lon="6.4539">
        <ele>595</ele>
        <time>2025-12-10T10:20:24.000Z</time>
      </trkpt>
      <trkpt lat="43.30266" lon="6.45403">
        <ele>595</ele>
        <time>2025-12-10T10:20:36.000Z</time>
      </trkpt>
      <trkpt lat="43.30273" lon="6.45413">
        <ele>595</ele>
        <time>2025-12-10T10:20:45.000Z</time>
      </trkpt>
      <trkpt lat="43.3028" lon="6.45423">
        <ele>594</ele>
        <time>2025-12-10T10:20:54.000Z</time>
      </trkpt>
      <trkpt lat="43.30286" lon="6.45434">
        <ele>593</ele>
        <time>2025-12-10T10:21:03.000Z</time>
      </trkpt>
      <trkpt lat="43.30295" lon="6.45443">
        <ele>592</ele>
        <time>2025-12-10T10:21:12.000Z</time>
      </trkpt>
      <trkpt lat="43.30303" lon="6.45449">
        <ele>591</ele>
        <time>2025-12-10T10:21:21.000Z</time>
      </trkpt>
      <trkpt lat="43.30312" lon="6.45446">
        <ele>590</ele>
        <time>2025-12-10T10:21:30.000Z</time>
      </trkpt>
      <trkpt lat="43.3032" lon="6.4544">
        <ele>589</ele>
        <time>2025-12-10T10:21:39.000Z</time>
      </trkpt>
      <trkpt lat="43.30329" lon="6.45432">
        <ele>588</ele>
        <time>2025-12-10T10:21:48.000Z</time>
      </trkpt>
      <trkpt lat="43.30337" lon="6.45424">
        <ele>587</ele>
        <time>2025-12-10T10:21:57.000Z</time>
      </trkpt>
      <trkpt lat="43.30344" lon="6.45417">
        <ele>586</ele>
        <time>2025-12-10T10:22:06.000Z</time>
      </trkpt>
      <trkpt lat="43.30353" lon="6.45409">
        <ele>585</ele>
        <time>2025-12-10T10:22:15.000Z</time>
      </trkpt>
      <trkpt lat="43.30362" lon="6.45404">
        <ele>585</ele>
        <time>2025-12-10T10:22:24.000Z</time>
      </trkpt>
      <trkpt lat="43.30373" lon="6.45401">
        <ele>584</ele>
        <time>2025-12-10T10:22:33.000Z</time>
      </trkpt>
      <trkpt lat="43.30382" lon="6.45397">
        <ele>583</ele>
        <time>2025-12-10T10:22:42.000Z</time>
      </trkpt>
      <trkpt lat="43.30392" lon="6.45393">
        <ele>582</ele>
        <time>2025-12-10T10:22:51.000Z</time>
      </trkpt>
      <trkpt lat="43.30401" lon="6.45387">
        <ele>581</ele>
        <time>2025-12-10T10:23:00.000Z</time>
      </trkpt>
      <trkpt lat="43.30409" lon="6.45377">
        <ele>581</ele>
        <time>2025-12-10T10:23:09.000Z</time>
      </trkpt>
      <trkpt lat="43.30415" lon="6.45364">
        <ele>581</ele>
        <time>2025-12-10T10:23:21.000Z</time>
      </trkpt>
      <trkpt lat="43.30422" lon="6.45352">
        <ele>581</ele>
        <time>2025-12-10T10:23:30.000Z</time>
      </trkpt>
      <trkpt lat="43.30429" lon="6.4534">
        <ele>581</ele>
        <time>2025-12-10T10:23:42.000Z</time>
      </trkpt>
      <trkpt lat="43.30435" lon="6.4533">
        <ele>581</ele>
        <time>2025-12-10T10:23:51.000Z</time>
      </trkpt>
      <trkpt lat="43.30441" lon="6.45319">
        <ele>580</ele>
        <time>2025-12-10T10:24:00.000Z</time>
      </trkpt>
      <trkpt lat="43.30448" lon="6.45309">
        <ele>580</ele>
        <time>2025-12-10T10:24:09.000Z</time>
      </trkpt>
      <trkpt lat="43.30456" lon="6.45299">
        <ele>579</ele>
        <time>2025-12-10T10:24:18.000Z</time>
      </trkpt>
      <trkpt lat="43.30464" lon="6.45289">
        <ele>579</ele>
        <time>2025-12-10T10:24:27.000Z</time>
      </trkpt>
      <trkpt lat="43.30471" lon="6.45279">
        <ele>578</ele>
        <time>2025-12-10T10:24:36.000Z</time>
      </trkpt>
      <trkpt lat="43.30479" lon="6.4527">
        <ele>578</ele>
        <time>2025-12-10T10:24:45.000Z</time>
      </trkpt>
      <trkpt lat="43.30488" lon="6.4526">
        <ele>577</ele>
        <time>2025-12-10T10:24:54.000Z</time>
      </trkpt>
      <trkpt lat="43.30495" lon="6.4525">
        <ele>577</ele>
        <time>2025-12-10T10:25:03.000Z</time>
      </trkpt>
      <trkpt lat="43.305" lon="6.45238">
        <ele>576</ele>
        <time>2025-12-10T10:25:12.000Z</time>
      </trkpt>
      <trkpt lat="43.30506" lon="6.45225">
        <ele>576</ele>
        <time>2025-12-10T10:25:21.000Z</time>
      </trkpt>
      <trkpt lat="43.30513" lon="6.45213">
        <ele>575</ele>
        <time>2025-12-10T10:25:30.000Z</time>
      </trkpt>
      <trkpt lat="43.30517" lon="6.45199">
        <ele>575</ele>
        <time>2025-12-10T10:25:39.000Z</time>
      </trkpt>
      <trkpt lat="43.30519" lon="6.45186">
        <ele>574</ele>
        <time>2025-12-10T10:25:48.000Z</time>
      </trkpt>
      <trkpt lat="43.30521" lon="6.45172">
        <ele>574</ele>
        <time>2025-12-10T10:25:57.000Z</time>
      </trkpt>
      <trkpt lat="43.30525" lon="6.45158">
        <ele>574</ele>
        <time>2025-12-10T10:26:06.000Z</time>
      </trkpt>
      <trkpt lat="43.30531" lon="6.45147">
        <ele>573</ele>
        <time>2025-12-10T10:26:15.000Z</time>
      </trkpt>
      <trkpt lat="43.30539" lon="6.45137">
        <ele>573</ele>
        <time>2025-12-10T10:26:24.000Z</time>
      </trkpt>
      <trkpt lat="43.30547" lon="6.45128">
        <ele>572</ele>
        <time>2025-12-10T10:26:33.000Z</time>
      </trkpt>
      <trkpt lat="43.30555" lon="6.4512">
        <ele>571</ele>
        <time>2025-12-10T10:26:42.000Z</time>
      </trkpt>
      <trkpt lat="43.30564" lon="6.45111">
        <ele>570</ele>
        <time>2025-12-10T10:26:51.000Z</time>
      </trkpt>
      <trkpt lat="43.30572" lon="6.45102">
        <ele>570</ele>
        <time>2025-12-10T10:27:00.000Z</time>
      </trkpt>
      <trkpt lat="43.30581" lon="6.45095">
        <ele>569</ele>
        <time>2025-12-10T10:27:09.000Z</time>
      </trkpt>
      <trkpt lat="43.30589" lon="6.45087">
        <ele>569</ele>
        <time>2025-12-10T10:27:18.000Z</time>
      </trkpt>
      <trkpt lat="43.30595" lon="6.45076">
        <ele>569</ele>
        <time>2025-12-10T10:27:27.000Z</time>
      </trkpt>
      <trkpt lat="43.30602" lon="6.45063">
        <ele>568</ele>
        <time>2025-12-10T10:27:36.000Z</time>
      </trkpt>
      <trkpt lat="43.30609" lon="6.45051">
        <ele>568</ele>
        <time>2025-12-10T10:27:45.000Z</time>
      </trkpt>
      <trkpt lat="43.30617" lon="6.4504">
        <ele>568</ele>
        <time>2025-12-10T10:27:54.000Z</time>
      </trkpt>
      <trkpt lat="43.30627" lon="6.45032">
        <ele>567</ele>
        <time>2025-12-10T10:28:09.000Z</time>
      </trkpt>
      <trkpt lat="43.30637" lon="6.4503">
        <ele>566</ele>
        <time>2025-12-10T10:28:18.000Z</time>
      </trkpt>
      <trkpt lat="43.30646" lon="6.4503">
        <ele>566</ele>
        <time>2025-12-10T10:28:27.000Z</time>
      </trkpt>
      <trkpt lat="43.30657" lon="6.45031">
        <ele>565</ele>
        <time>2025-12-10T10:28:36.000Z</time>
      </trkpt>
      <trkpt lat="43.30668" lon="6.45032">
        <ele>564</ele>
        <time>2025-12-10T10:28:45.000Z</time>
      </trkpt>
      <trkpt lat="43.30678" lon="6.45032">
        <ele>563</ele>
        <time>2025-12-10T10:28:54.000Z</time>
      </trkpt>
      <trkpt lat="43.30689" lon="6.45033">
        <ele>563</ele>
        <time>2025-12-10T10:29:03.000Z</time>
      </trkpt>
      <trkpt lat="43.30699" lon="6.45032">
        <ele>562</ele>
        <time>2025-12-10T10:29:12.000Z</time>
      </trkpt>
      <trkpt lat="43.30707" lon="6.45025">
        <ele>562</ele>
        <time>2025-12-10T10:29:21.000Z</time>
      </trkpt>
      <trkpt lat="43.30715" lon="6.45016">
        <ele>561</ele>
        <time>2025-12-10T10:29:30.000Z</time>
      </trkpt>
      <trkpt lat="43.30724" lon="6.45007">
        <ele>560</ele>
        <time>2025-12-10T10:29:39.000Z</time>
      </trkpt>
      <trkpt lat="43.30734" lon="6.45">
        <ele>560</ele>
        <time>2025-12-10T10:29:48.000Z</time>
      </trkpt>
      <trkpt lat="43.30744" lon="6.44994">
        <ele>559</ele>
        <time>2025-12-10T10:29:57.000Z</time>
      </trkpt>
      <trkpt lat="43.30754" lon="6.44989">
        <ele>558</ele>
        <time>2025-12-10T10:30:06.000Z</time>
      </trkpt>
      <trkpt lat="43.30764" lon="6.44984">
        <ele>557</ele>
        <time>2025-12-10T10:30:15.000Z</time>
      </trkpt>
      <trkpt lat="43.30775" lon="6.44981">
        <ele>557</ele>
        <time>2025-12-10T10:30:24.000Z</time>
      </trkpt>
      <trkpt lat="43.30786" lon="6.44977">
        <ele>556</ele>
        <time>2025-12-10T10:30:33.000Z</time>
      </trkpt>
      <trkpt lat="43.30796" lon="6.44975">
        <ele>555</ele>
        <time>2025-12-10T10:30:42.000Z</time>
      </trkpt>
      <trkpt lat="43.30807" lon="6.44976">
        <ele>555</ele>
        <time>2025-12-10T10:30:54.000Z</time>
      </trkpt>
      <trkpt lat="43.30816" lon="6.44979">
        <ele>556</ele>
        <time>2025-12-10T10:31:06.000Z</time>
      </trkpt>
      <trkpt lat="43.30824" lon="6.44984">
        <ele>556</ele>
        <time>2025-12-10T10:31:33.000Z</time>
      </trkpt>
      <trkpt lat="43.3083" lon="6.44996">
        <ele>556</ele>
        <time>2025-12-10T10:31:42.000Z</time>
      </trkpt>
      <trkpt lat="43.30833" lon="6.4501">
        <ele>556</ele>
        <time>2025-12-10T10:31:54.000Z</time>
      </trkpt>
      <trkpt lat="43.30834" lon="6.45023">
        <ele>556</ele>
        <time>2025-12-10T10:32:03.000Z</time>
      </trkpt>
      <trkpt lat="43.30833" lon="6.45035">
        <ele>556</ele>
        <time>2025-12-10T10:32:15.000Z</time>
      </trkpt>
      <trkpt lat="43.30827" lon="6.45043">
        <ele>556</ele>
        <time>2025-12-10T10:34:33.000Z</time>
      </trkpt>
      <trkpt lat="43.30822" lon="6.45053">
        <ele>556</ele>
        <time>2025-12-10T10:34:42.000Z</time>
      </trkpt>
      <trkpt lat="43.30816" lon="6.45063">
        <ele>555</ele>
        <time>2025-12-10T10:34:51.000Z</time>
      </trkpt>
      <trkpt lat="43.30811" lon="6.45073">
        <ele>555</ele>
        <time>2025-12-10T10:35:00.000Z</time>
      </trkpt>
      <trkpt lat="43.30805" lon="6.45083">
        <ele>555</ele>
        <time>2025-12-10T10:35:09.000Z</time>
      </trkpt>
      <trkpt lat="43.30799" lon="6.45093">
        <ele>554</ele>
        <time>2025-12-10T10:35:18.000Z</time>
      </trkpt>
      <trkpt lat="43.30793" lon="6.45104">
        <ele>554</ele>
        <time>2025-12-10T10:35:27.000Z</time>
      </trkpt>
      <trkpt lat="43.30787" lon="6.45115">
        <ele>555</ele>
        <time>2025-12-10T10:35:36.000Z</time>
      </trkpt>
      <trkpt lat="43.30784" lon="6.45126">
        <ele>555</ele>
        <time>2025-12-10T10:35:48.000Z</time>
      </trkpt>
      <trkpt lat="43.30782" lon="6.45138">
        <ele>556</ele>
        <time>2025-12-10T10:35:57.000Z</time>
      </trkpt>
      <trkpt lat="43.30781" lon="6.45152">
        <ele>556</ele>
        <time>2025-12-10T10:36:06.000Z</time>
      </trkpt>
      <trkpt lat="43.30779" lon="6.45166">
        <ele>556</ele>
        <time>2025-12-10T10:36:15.000Z</time>
      </trkpt>
      <trkpt lat="43.30776" lon="6.4518">
        <ele>556</ele>
        <time>2025-12-10T10:36:24.000Z</time>
      </trkpt>
      <trkpt lat="43.30772" lon="6.45193">
        <ele>556</ele>
        <time>2025-12-10T10:36:33.000Z</time>
      </trkpt>
      <trkpt lat="43.3077" lon="6.45205">
        <ele>557</ele>
        <time>2025-12-10T10:36:42.000Z</time>
      </trkpt>
      <trkpt lat="43.30769" lon="6.45219">
        <ele>557</ele>
        <time>2025-12-10T10:36:51.000Z</time>
      </trkpt>
      <trkpt lat="43.30768" lon="6.45234">
        <ele>558</ele>
        <time>2025-12-10T10:37:00.000Z</time>
      </trkpt>
      <trkpt lat="43.30767" lon="6.4525">
        <ele>558</ele>
        <time>2025-12-10T10:37:09.000Z</time>
      </trkpt>
      <trkpt lat="43.30764" lon="6.45264">
        <ele>558</ele>
        <time>2025-12-10T10:37:27.000Z</time>
      </trkpt>
      <trkpt lat="43.30759" lon="6.45275">
        <ele>557</ele>
        <time>2025-12-10T10:37:36.000Z</time>
      </trkpt>
      <trkpt lat="43.3075" lon="6.4528">
        <ele>557</ele>
        <time>2025-12-10T10:37:45.000Z</time>
      </trkpt>
      <trkpt lat="43.30741" lon="6.45284">
        <ele>557</ele>
        <time>2025-12-10T10:37:54.000Z</time>
      </trkpt>
      <trkpt lat="43.30731" lon="6.45289">
        <ele>557</ele>
        <time>2025-12-10T10:38:03.000Z</time>
      </trkpt>
      <trkpt lat="43.30723" lon="6.45295">
        <ele>558</ele>
        <time>2025-12-10T10:38:09.000Z</time>
      </trkpt>
      <trkpt lat="43.30717" lon="6.45304">
        <ele>558</ele>
        <time>2025-12-10T10:38:18.000Z</time>
      </trkpt>
      <trkpt lat="43.30714" lon="6.45317">
        <ele>559</ele>
        <time>2025-12-10T10:38:27.000Z</time>
      </trkpt>
      <trkpt lat="43.30711" lon="6.45332">
        <ele>559</ele>
        <time>2025-12-10T10:38:36.000Z</time>
      </trkpt>
      <trkpt lat="43.30706" lon="6.45346">
        <ele>560</ele>
        <time>2025-12-10T10:38:45.000Z</time>
      </trkpt>
      <trkpt lat="43.30702" lon="6.45357">
        <ele>560</ele>
        <time>2025-12-10T10:38:54.000Z</time>
      </trkpt>
      <trkpt lat="43.30696" lon="6.45367">
        <ele>559</ele>
        <time>2025-12-10T10:39:00.000Z</time>
      </trkpt>
      <trkpt lat="43.3069" lon="6.45377">
        <ele>559</ele>
        <time>2025-12-10T10:39:09.000Z</time>
      </trkpt>
      <trkpt lat="43.30683" lon="6.45389">
        <ele>558</ele>
        <time>2025-12-10T10:39:18.000Z</time>
      </trkpt>
      <trkpt lat="43.3068" lon="6.45402">
        <ele>558</ele>
        <time>2025-12-10T10:39:27.000Z</time>
      </trkpt>
      <trkpt lat="43.3068" lon="6.45415">
        <ele>557</ele>
        <time>2025-12-10T10:39:36.000Z</time>
      </trkpt>
      <trkpt lat="43.30679" lon="6.45431">
        <ele>557</ele>
        <time>2025-12-10T10:39:45.000Z</time>
      </trkpt>
      <trkpt lat="43.30679" lon="6.45445">
        <ele>556</ele>
        <time>2025-12-10T10:39:54.000Z</time>
      </trkpt>
      <trkpt lat="43.30677" lon="6.45459">
        <ele>556</ele>
        <time>2025-12-10T10:40:03.000Z</time>
      </trkpt>
      <trkpt lat="43.30675" lon="6.45474">
        <ele>556</ele>
        <time>2025-12-10T10:40:12.000Z</time>
      </trkpt>
      <trkpt lat="43.30672" lon="6.45487">
        <ele>556</ele>
        <time>2025-12-10T10:40:21.000Z</time>
      </trkpt>
      <trkpt lat="43.30667" lon="6.45499">
        <ele>555</ele>
        <time>2025-12-10T10:40:30.000Z</time>
      </trkpt>
      <trkpt lat="43.30661" lon="6.45512">
        <ele>555</ele>
        <time>2025-12-10T10:40:39.000Z</time>
      </trkpt>
      <trkpt lat="43.30655" lon="6.45522">
        <ele>555</ele>
        <time>2025-12-10T10:40:48.000Z</time>
      </trkpt>
      <trkpt lat="43.30647" lon="6.45533">
        <ele>554</ele>
        <time>2025-12-10T10:40:57.000Z</time>
      </trkpt>
      <trkpt lat="43.30641" lon="6.45544">
        <ele>553</ele>
        <time>2025-12-10T10:41:06.000Z</time>
      </trkpt>
      <trkpt lat="43.30636" lon="6.45556">
        <ele>553</ele>
        <time>2025-12-10T10:41:15.000Z</time>
      </trkpt>
      <trkpt lat="43.3063" lon="6.45566">
        <ele>554</ele>
        <time>2025-12-10T10:41:21.000Z</time>
      </trkpt>
      <trkpt lat="43.30625" lon="6.45578">
        <ele>555</ele>
        <time>2025-12-10T10:41:30.000Z</time>
      </trkpt>
      <trkpt lat="43.3062" lon="6.4559">
        <ele>556</ele>
        <time>2025-12-10T10:41:39.000Z</time>
      </trkpt>
      <trkpt lat="43.30617" lon="6.45603">
        <ele>556</ele>
        <time>2025-12-10T10:41:51.000Z</time>
      </trkpt>
      <trkpt lat="43.30613" lon="6.45615">
        <ele>557</ele>
        <time>2025-12-10T10:42:00.000Z</time>
      </trkpt>
      <trkpt lat="43.3061" lon="6.45629">
        <ele>558</ele>
        <time>2025-12-10T10:42:09.000Z</time>
      </trkpt>
      <trkpt lat="43.30606" lon="6.45641">
        <ele>558</ele>
        <time>2025-12-10T10:42:18.000Z</time>
      </trkpt>
      <trkpt lat="43.30603" lon="6.45655">
        <ele>559</ele>
        <time>2025-12-10T10:42:30.000Z</time>
      </trkpt>
      <trkpt lat="43.30598" lon="6.45669">
        <ele>560</ele>
        <time>2025-12-10T10:42:39.000Z</time>
      </trkpt>
      <trkpt lat="43.30593" lon="6.45682">
        <ele>560</ele>
        <time>2025-12-10T10:42:48.000Z</time>
      </trkpt>
      <trkpt lat="43.3059" lon="6.45694">
        <ele>560</ele>
        <time>2025-12-10T10:43:00.000Z</time>
      </trkpt>
      <trkpt lat="43.30585" lon="6.45708">
        <ele>560</ele>
        <time>2025-12-10T10:43:24.000Z</time>
      </trkpt>
      <trkpt lat="43.30581" lon="6.45721">
        <ele>560</ele>
        <time>2025-12-10T10:43:33.000Z</time>
      </trkpt>
      <trkpt lat="43.30578" lon="6.45734">
        <ele>560</ele>
        <time>2025-12-10T10:43:45.000Z</time>
      </trkpt>
      <trkpt lat="43.30575" lon="6.45746">
        <ele>559</ele>
        <time>2025-12-10T10:43:54.000Z</time>
      </trkpt>
      <trkpt lat="43.30574" lon="6.45758">
        <ele>559</ele>
        <time>2025-12-10T10:46:00.000Z</time>
      </trkpt>
      <trkpt lat="43.30571" lon="6.4577">
        <ele>559</ele>
        <time>2025-12-10T10:46:09.000Z</time>
      </trkpt>
      <trkpt lat="43.30568" lon="6.45784">
        <ele>558</ele>
        <time>2025-12-10T10:46:18.000Z</time>
      </trkpt>
      <trkpt lat="43.30562" lon="6.45798">
        <ele>558</ele>
        <time>2025-12-10T10:46:27.000Z</time>
      </trkpt>
      <trkpt lat="43.30554" lon="6.45809">
        <ele>557</ele>
        <time>2025-12-10T10:46:36.000Z</time>
      </trkpt>
      <trkpt lat="43.30543" lon="6.45815">
        <ele>557</ele>
        <time>2025-12-10T10:46:45.000Z</time>
      </trkpt>
      <trkpt lat="43.30532" lon="6.45819">
        <ele>557</ele>
        <time>2025-12-10T10:46:54.000Z</time>
      </trkpt>
      <trkpt lat="43.30524" lon="6.45823">
        <ele>557</ele>
        <time>2025-12-10T10:47:03.000Z</time>
      </trkpt>
      <trkpt lat="43.30516" lon="6.4583">
        <ele>557</ele>
        <time>2025-12-10T10:47:09.000Z</time>
      </trkpt>
      <trkpt lat="43.30511" lon="6.4584">
        <ele>557</ele>
        <time>2025-12-10T10:47:18.000Z</time>
      </trkpt>
      <trkpt lat="43.30513" lon="6.45853">
        <ele>557</ele>
        <time>2025-12-10T10:47:30.000Z</time>
      </trkpt>
      <trkpt lat="43.30518" lon="6.45867">
        <ele>557</ele>
        <time>2025-12-10T10:47:39.000Z</time>
      </trkpt>
      <trkpt lat="43.30524" lon="6.45879">
        <ele>557</ele>
        <time>2025-12-10T10:47:48.000Z</time>
      </trkpt>
      <trkpt lat="43.30529" lon="6.45892">
        <ele>557</ele>
        <time>2025-12-10T10:47:57.000Z</time>
      </trkpt>
      <trkpt lat="43.30533" lon="6.45906">
        <ele>557</ele>
        <time>2025-12-10T10:48:06.000Z</time>
      </trkpt>
      <trkpt lat="43.30538" lon="6.45919">
        <ele>556</ele>
        <time>2025-12-10T10:48:15.000Z</time>
      </trkpt>
      <trkpt lat="43.30541" lon="6.45933">
        <ele>556</ele>
        <time>2025-12-10T10:48:24.000Z</time>
      </trkpt>
      <trkpt lat="43.30539" lon="6.45947">
        <ele>556</ele>
        <time>2025-12-10T10:48:33.000Z</time>
      </trkpt>
      <trkpt lat="43.30534" lon="6.45959">
        <ele>556</ele>
        <time>2025-12-10T10:48:39.000Z</time>
      </trkpt>
      <trkpt lat="43.3053" lon="6.45971">
        <ele>555</ele>
        <time>2025-12-10T10:48:48.000Z</time>
      </trkpt>
      <trkpt lat="43.30527" lon="6.45985">
        <ele>555</ele>
        <time>2025-12-10T10:48:57.000Z</time>
      </trkpt>
      <trkpt lat="43.30522" lon="6.46">
        <ele>555</ele>
        <time>2025-12-10T10:49:06.000Z</time>
      </trkpt>
      <trkpt lat="43.30519" lon="6.46014">
        <ele>555</ele>
        <time>2025-12-10T10:49:15.000Z</time>
      </trkpt>
      <trkpt lat="43.30519" lon="6.46028">
        <ele>555</ele>
        <time>2025-12-10T10:49:24.000Z</time>
      </trkpt>
      <trkpt lat="43.30526" lon="6.46038">
        <ele>555</ele>
        <time>2025-12-10T10:49:33.000Z</time>
      </trkpt>
      <trkpt lat="43.30535" lon="6.46041">
        <ele>555</ele>
        <time>2025-12-10T10:49:39.000Z</time>
      </trkpt>
      <trkpt lat="43.30544" lon="6.46043">
        <ele>555</ele>
        <time>2025-12-10T10:49:45.000Z</time>
      </trkpt>
      <trkpt lat="43.30554" lon="6.46042">
        <ele>555</ele>
        <time>2025-12-10T10:49:54.000Z</time>
      </trkpt>
      <trkpt lat="43.30564" lon="6.4604">
        <ele>555</ele>
        <time>2025-12-10T10:50:03.000Z</time>
      </trkpt>
      <trkpt lat="43.30575" lon="6.46042">
        <ele>556</ele>
        <time>2025-12-10T10:50:12.000Z</time>
      </trkpt>
      <trkpt lat="43.30585" lon="6.46043">
        <ele>556</ele>
        <time>2025-12-10T10:50:21.000Z</time>
      </trkpt>
      <trkpt lat="43.30595" lon="6.46049">
        <ele>556</ele>
        <time>2025-12-10T10:50:30.000Z</time>
      </trkpt>
      <trkpt lat="43.30605" lon="6.46058">
        <ele>557</ele>
        <time>2025-12-10T10:50:39.000Z</time>
      </trkpt>
      <trkpt lat="43.30614" lon="6.46066">
        <ele>557</ele>
        <time>2025-12-10T10:50:48.000Z</time>
      </trkpt>
      <trkpt lat="43.30622" lon="6.46074">
        <ele>557</ele>
        <time>2025-12-10T10:50:57.000Z</time>
      </trkpt>
      <trkpt lat="43.30629" lon="6.46085">
        <ele>557</ele>
        <time>2025-12-10T10:51:06.000Z</time>
      </trkpt>
      <trkpt lat="43.30634" lon="6.46098">
        <ele>557</ele>
        <time>2025-12-10T10:51:15.000Z</time>
      </trkpt>
      <trkpt lat="43.30639" lon="6.46109">
        <ele>558</ele>
        <time>2025-12-10T10:51:24.000Z</time>
      </trkpt>
      <trkpt lat="43.30645" lon="6.46118">
        <ele>558</ele>
        <time>2025-12-10T10:51:30.000Z</time>
      </trkpt>
      <trkpt lat="43.30654" lon="6.46126">
        <ele>557</ele>
        <time>2025-12-10T10:51:39.000Z</time>
      </trkpt>
      <trkpt lat="43.30663" lon="6.46126">
        <ele>557</ele>
        <time>2025-12-10T10:51:48.000Z</time>
      </trkpt>
      <trkpt lat="43.30672" lon="6.46125">
        <ele>558</ele>
        <time>2025-12-10T10:51:54.000Z</time>
      </trkpt>
      <trkpt lat="43.30681" lon="6.46122">
        <ele>558</ele>
        <time>2025-12-10T10:52:03.000Z</time>
      </trkpt>
      <trkpt lat="43.30692" lon="6.46121">
        <ele>558</ele>
        <time>2025-12-10T10:52:12.000Z</time>
      </trkpt>
      <trkpt lat="43.30701" lon="6.46127">
        <ele>558</ele>
        <time>2025-12-10T10:52:21.000Z</time>
      </trkpt>
      <trkpt lat="43.30709" lon="6.4614">
        <ele>558</ele>
        <time>2025-12-10T10:52:33.000Z</time>
      </trkpt>
      <trkpt lat="43.30715" lon="6.46154">
        <ele>558</ele>
        <time>2025-12-10T10:52:42.000Z</time>
      </trkpt>
      <trkpt lat="43.30718" lon="6.46169">
        <ele>558</ele>
        <time>2025-12-10T10:52:51.000Z</time>
      </trkpt>
      <trkpt lat="43.30723" lon="6.46182">
        <ele>558</ele>
        <time>2025-12-10T10:53:00.000Z</time>
      </trkpt>
      <trkpt lat="43.30726" lon="6.46196">
        <ele>557</ele>
        <time>2025-12-10T10:53:09.000Z</time>
      </trkpt>
      <trkpt lat="43.30731" lon="6.46209">
        <ele>557</ele>
        <time>2025-12-10T10:53:18.000Z</time>
      </trkpt>
      <trkpt lat="43.30737" lon="6.46223">
        <ele>556</ele>
        <time>2025-12-10T10:53:27.000Z</time>
      </trkpt>
      <trkpt lat="43.30741" lon="6.46235">
        <ele>555</ele>
        <time>2025-12-10T10:53:36.000Z</time>
      </trkpt>
      <trkpt lat="43.30747" lon="6.46247">
        <ele>554</ele>
        <time>2025-12-10T10:53:45.000Z</time>
      </trkpt>
      <trkpt lat="43.30755" lon="6.46258">
        <ele>554</ele>
        <time>2025-12-10T10:53:54.000Z</time>
      </trkpt>
      <trkpt lat="43.30763" lon="6.46267">
        <ele>553</ele>
        <time>2025-12-10T10:54:03.000Z</time>
      </trkpt>
      <trkpt lat="43.30771" lon="6.46279">
        <ele>553</ele>
        <time>2025-12-10T10:54:12.000Z</time>
      </trkpt>
      <trkpt lat="43.30778" lon="6.4629">
        <ele>552</ele>
        <time>2025-12-10T10:54:21.000Z</time>
      </trkpt>
      <trkpt lat="43.30786" lon="6.46299">
        <ele>551</ele>
        <time>2025-12-10T10:54:30.000Z</time>
      </trkpt>
      <trkpt lat="43.30794" lon="6.46309">
        <ele>551</ele>
        <time>2025-12-10T10:54:39.000Z</time>
      </trkpt>
      <trkpt lat="43.30801" lon="6.46317">
        <ele>550</ele>
        <time>2025-12-10T10:54:45.000Z</time>
      </trkpt>
      <trkpt lat="43.3081" lon="6.46325">
        <ele>549</ele>
        <time>2025-12-10T10:54:54.000Z</time>
      </trkpt>
      <trkpt lat="43.30817" lon="6.46333">
        <ele>548</ele>
        <time>2025-12-10T10:55:03.000Z</time>
      </trkpt>
      <trkpt lat="43.30825" lon="6.46343">
        <ele>547</ele>
        <time>2025-12-10T10:55:12.000Z</time>
      </trkpt>
      <trkpt lat="43.30832" lon="6.46352">
        <ele>546</ele>
        <time>2025-12-10T10:55:21.000Z</time>
      </trkpt>
      <trkpt lat="43.3084" lon="6.46361">
        <ele>545</ele>
        <time>2025-12-10T10:55:30.000Z</time>
      </trkpt>
      <trkpt lat="43.3085" lon="6.46363">
        <ele>545</ele>
        <time>2025-12-10T10:58:45.000Z</time>
      </trkpt>
      <trkpt lat="43.30861" lon="6.46361">
        <ele>544</ele>
        <time>2025-12-10T10:58:54.000Z</time>
      </trkpt>
      <trkpt lat="43.30872" lon="6.46361">
        <ele>544</ele>
        <time>2025-12-10T10:59:03.000Z</time>
      </trkpt>
      <trkpt lat="43.30883" lon="6.46367">
        <ele>544</ele>
        <time>2025-12-10T10:59:12.000Z</time>
      </trkpt>
      <trkpt lat="43.30893" lon="6.46375">
        <ele>544</ele>
        <time>2025-12-10T10:59:21.000Z</time>
      </trkpt>
      <trkpt lat="43.30902" lon="6.46382">
        <ele>543</ele>
        <time>2025-12-10T10:59:30.000Z</time>
      </trkpt>
      <trkpt lat="43.30911" lon="6.46389">
        <ele>543</ele>
        <time>2025-12-10T10:59:39.000Z</time>
      </trkpt>
      <trkpt lat="43.3092" lon="6.46398">
        <ele>542</ele>
        <time>2025-12-10T10:59:48.000Z</time>
      </trkpt>
      <trkpt lat="43.30929" lon="6.46405">
        <ele>542</ele>
        <time>2025-12-10T11:00:03.000Z</time>
      </trkpt>
      <trkpt lat="43.30937" lon="6.46414">
        <ele>541</ele>
        <time>2025-12-10T11:00:12.000Z</time>
      </trkpt>
      <trkpt lat="43.30945" lon="6.46423">
        <ele>541</ele>
        <time>2025-12-10T11:00:21.000Z</time>
      </trkpt>
      <trkpt lat="43.30953" lon="6.46432">
        <ele>540</ele>
        <time>2025-12-10T11:00:30.000Z</time>
      </trkpt>
      <trkpt lat="43.30961" lon="6.46439">
        <ele>540</ele>
        <time>2025-12-10T11:00:36.000Z</time>
      </trkpt>
      <trkpt lat="43.30972" lon="6.46446">
        <ele>539</ele>
        <time>2025-12-10T11:00:45.000Z</time>
      </trkpt>
      <trkpt lat="43.30982" lon="6.46447">
        <ele>539</ele>
        <time>2025-12-10T11:00:54.000Z</time>
      </trkpt>
      <trkpt lat="43.30992" lon="6.46444">
        <ele>538</ele>
        <time>2025-12-10T11:01:03.000Z</time>
      </trkpt>
      <trkpt lat="43.31002" lon="6.46442">
        <ele>537</ele>
        <time>2025-12-10T11:01:12.000Z</time>
      </trkpt>
      <trkpt lat="43.31013" lon="6.46444">
        <ele>537</ele>
        <time>2025-12-10T11:01:21.000Z</time>
      </trkpt>
      <trkpt lat="43.31022" lon="6.46449">
        <ele>536</ele>
        <time>2025-12-10T11:01:30.000Z</time>
      </trkpt>
      <trkpt lat="43.31031" lon="6.46458">
        <ele>536</ele>
        <time>2025-12-10T11:01:39.000Z</time>
      </trkpt>
      <trkpt lat="43.3104" lon="6.46468">
        <ele>535</ele>
        <time>2025-12-10T11:01:48.000Z</time>
      </trkpt>
      <trkpt lat="43.31048" lon="6.46478">
        <ele>535</ele>
        <time>2025-12-10T11:01:57.000Z</time>
      </trkpt>
      <trkpt lat="43.31055" lon="6.46484">
        <ele>534</ele>
        <time>2025-12-10T11:02:03.000Z</time>
      </trkpt>
      <trkpt lat="43.31065" lon="6.46488">
        <ele>534</ele>
        <time>2025-12-10T11:02:11.000Z</time>
      </trkpt>
      <trkpt lat="43.31075" lon="6.46492">
        <ele>533</ele>
        <time>2025-12-10T11:02:20.000Z</time>
      </trkpt>
      <trkpt lat="43.31085" lon="6.46494">
        <ele>532</ele>
        <time>2025-12-10T11:02:29.000Z</time>
      </trkpt>
      <trkpt lat="43.31097" lon="6.46494">
        <ele>532</ele>
        <time>2025-12-10T11:02:38.000Z</time>
      </trkpt>
      <trkpt lat="43.31108" lon="6.46493">
        <ele>531</ele>
        <time>2025-12-10T11:02:47.000Z</time>
      </trkpt>
      <trkpt lat="43.31119" lon="6.46492">
        <ele>531</ele>
        <time>2025-12-10T11:02:56.000Z</time>
      </trkpt>
      <trkpt lat="43.31129" lon="6.46487">
        <ele>531</ele>
        <time>2025-12-10T11:03:05.000Z</time>
      </trkpt>
      <trkpt lat="43.31137" lon="6.46483">
        <ele>531</ele>
        <time>2025-12-10T11:03:11.000Z</time>
      </trkpt>
      <trkpt lat="43.31145" lon="6.46476">
        <ele>530</ele>
        <time>2025-12-10T11:03:17.000Z</time>
      </trkpt>
      <trkpt lat="43.31153" lon="6.46467">
        <ele>530</ele>
        <time>2025-12-10T11:03:26.000Z</time>
      </trkpt>
      <trkpt lat="43.31162" lon="6.46457">
        <ele>529</ele>
        <time>2025-12-10T11:03:35.000Z</time>
      </trkpt>
      <trkpt lat="43.31169" lon="6.46446">
        <ele>529</ele>
        <time>2025-12-10T11:03:44.000Z</time>
      </trkpt>
      <trkpt lat="43.31179" lon="6.46437">
        <ele>528</ele>
        <time>2025-12-10T11:03:53.000Z</time>
      </trkpt>
      <trkpt lat="43.31186" lon="6.46428">
        <ele>528</ele>
        <time>2025-12-10T11:04:02.000Z</time>
      </trkpt>
      <trkpt lat="43.31192" lon="6.46419">
        <ele>527</ele>
        <time>2025-12-10T11:04:08.000Z</time>
      </trkpt>
      <trkpt lat="43.31197" lon="6.46406">
        <ele>526</ele>
        <time>2025-12-10T11:04:17.000Z</time>
      </trkpt>
      <trkpt lat="43.31204" lon="6.46395">
        <ele>526</ele>
        <time>2025-12-10T11:04:26.000Z</time>
      </trkpt>
      <trkpt lat="43.31211" lon="6.46385">
        <ele>526</ele>
        <time>2025-12-10T11:04:35.000Z</time>
      </trkpt>
      <trkpt lat="43.31215" lon="6.46371">
        <ele>525</ele>
        <time>2025-12-10T11:04:44.000Z</time>
      </trkpt>
      <trkpt lat="43.31216" lon="6.46358">
        <ele>525</ele>
        <time>2025-12-10T11:04:50.000Z</time>
      </trkpt>
      <trkpt lat="43.31216" lon="6.46344">
        <ele>525</ele>
        <time>2025-12-10T11:04:59.000Z</time>
      </trkpt>
      <trkpt lat="43.31219" lon="6.4633">
        <ele>525</ele>
        <time>2025-12-10T11:05:08.000Z</time>
      </trkpt>
      <trkpt lat="43.31227" lon="6.46325">
        <ele>525</ele>
        <time>2025-12-10T11:05:20.000Z</time>
      </trkpt>
      <trkpt lat="43.31237" lon="6.46327">
        <ele>526</ele>
        <time>2025-12-10T11:05:29.000Z</time>
      </trkpt>
      <trkpt lat="43.31249" lon="6.46332">
        <ele>526</ele>
        <time>2025-12-10T11:05:41.000Z</time>
      </trkpt>
      <trkpt lat="43.31258" lon="6.46339">
        <ele>526</ele>
        <time>2025-12-10T11:05:50.000Z</time>
      </trkpt>
      <trkpt lat="43.31267" lon="6.46348">
        <ele>526</ele>
        <time>2025-12-10T11:06:02.000Z</time>
      </trkpt>
      <trkpt lat="43.31277" lon="6.46356">
        <ele>526</ele>
        <time>2025-12-10T11:06:11.000Z</time>
      </trkpt>
      <trkpt lat="43.31286" lon="6.46365">
        <ele>526</ele>
        <time>2025-12-10T11:06:20.000Z</time>
      </trkpt>
      <trkpt lat="43.31293" lon="6.46375">
        <ele>526</ele>
        <time>2025-12-10T11:06:29.000Z</time>
      </trkpt>
      <trkpt lat="43.31301" lon="6.46384">
        <ele>526</ele>
        <time>2025-12-10T11:06:38.000Z</time>
      </trkpt>
      <trkpt lat="43.31308" lon="6.46392">
        <ele>526</ele>
        <time>2025-12-10T11:06:44.000Z</time>
      </trkpt>
      <trkpt lat="43.31316" lon="6.464">
        <ele>526</ele>
        <time>2025-12-10T11:06:53.000Z</time>
      </trkpt>
      <trkpt lat="43.31326" lon="6.46407">
        <ele>526</ele>
        <time>2025-12-10T11:07:02.000Z</time>
      </trkpt>
      <trkpt lat="43.31336" lon="6.46412">
        <ele>526</ele>
        <time>2025-12-10T11:07:11.000Z</time>
      </trkpt>
      <trkpt lat="43.31345" lon="6.46418">
        <ele>526</ele>
        <time>2025-12-10T11:07:20.000Z</time>
      </trkpt>
      <trkpt lat="43.31354" lon="6.46424">
        <ele>526</ele>
        <time>2025-12-10T11:07:29.000Z</time>
      </trkpt>
      <trkpt lat="43.31365" lon="6.4643">
        <ele>526</ele>
        <time>2025-12-10T11:07:38.000Z</time>
      </trkpt>
      <trkpt lat="43.31374" lon="6.4643">
        <ele>525</ele>
        <time>2025-12-10T11:07:47.000Z</time>
      </trkpt>
      <trkpt lat="43.31382" lon="6.46426">
        <ele>525</ele>
        <time>2025-12-10T11:07:56.000Z</time>
      </trkpt>
      <trkpt lat="43.31392" lon="6.46422">
        <ele>525</ele>
        <time>2025-12-10T11:08:05.000Z</time>
      </trkpt>
      <trkpt lat="43.31403" lon="6.46422">
        <ele>524</ele>
        <time>2025-12-10T11:08:14.000Z</time>
      </trkpt>
      <trkpt lat="43.31414" lon="6.46421">
        <ele>524</ele>
        <time>2025-12-10T11:08:23.000Z</time>
      </trkpt>
      <trkpt lat="43.31424" lon="6.4642">
        <ele>523</ele>
        <time>2025-12-10T11:08:32.000Z</time>
      </trkpt>
      <trkpt lat="43.31433" lon="6.46417">
        <ele>523</ele>
        <time>2025-12-10T11:08:41.000Z</time>
      </trkpt>
      <trkpt lat="43.31443" lon="6.46415">
        <ele>523</ele>
        <time>2025-12-10T11:08:50.000Z</time>
      </trkpt>
      <trkpt lat="43.31453" lon="6.46412">
        <ele>523</ele>
        <time>2025-12-10T11:08:56.000Z</time>
      </trkpt>
      <trkpt lat="43.31462" lon="6.46408">
        <ele>523</ele>
        <time>2025-12-10T11:09:05.000Z</time>
      </trkpt>
      <trkpt lat="43.31471" lon="6.46403">
        <ele>523</ele>
        <time>2025-12-10T11:09:14.000Z</time>
      </trkpt>
      <trkpt lat="43.3148" lon="6.464">
        <ele>524</ele>
        <time>2025-12-10T11:09:23.000Z</time>
      </trkpt>
      <trkpt lat="43.31489" lon="6.46402">
        <ele>524</ele>
        <time>2025-12-10T11:09:35.000Z</time>
      </trkpt>
      <trkpt lat="43.31497" lon="6.46409">
        <ele>524</ele>
        <time>2025-12-10T11:09:44.000Z</time>
      </trkpt>
      <trkpt lat="43.31505" lon="6.46418">
        <ele>524</ele>
        <time>2025-12-10T11:09:56.000Z</time>
      </trkpt>
      <trkpt lat="43.31512" lon="6.46429">
        <ele>525</ele>
        <time>2025-12-10T11:10:08.000Z</time>
      </trkpt>
      <trkpt lat="43.31517" lon="6.46439">
        <ele>524</ele>
        <time>2025-12-10T11:10:17.000Z</time>
      </trkpt>
      <trkpt lat="43.31519" lon="6.4645">
        <ele>523</ele>
        <time>2025-12-10T11:10:32.000Z</time>
      </trkpt>
      <trkpt lat="43.31515" lon="6.46456">
        <ele>522</ele>
        <time>2025-12-10T11:11:17.000Z</time>
      </trkpt>
      <trkpt lat="43.31522" lon="6.46458">
        <ele>520</ele>
        <time>2025-12-10T11:12:17.000Z</time>
      </trkpt>
      <trkpt lat="43.3153" lon="6.46467">
        <ele>518</ele>
        <time>2025-12-10T11:15:30.000Z</time>
      </trkpt>
      <trkpt lat="43.31538" lon="6.46474">
        <ele>516</ele>
        <time>2025-12-10T11:15:45.000Z</time>
      </trkpt>
      <trkpt lat="43.31546" lon="6.46483">
        <ele>514</ele>
        <time>2025-12-10T11:16:00.000Z</time>
      </trkpt>
      <trkpt lat="43.31554" lon="6.46491">
        <ele>512</ele>
        <time>2025-12-10T11:16:15.000Z</time>
      </trkpt>
      <trkpt lat="43.31564" lon="6.46493">
        <ele>510</ele>
        <time>2025-12-10T11:16:27.000Z</time>
      </trkpt>
      <trkpt lat="43.31574" lon="6.46492">
        <ele>508</ele>
        <time>2025-12-10T11:16:51.000Z</time>
      </trkpt>
      <trkpt lat="43.31583" lon="6.46494">
        <ele>505</ele>
        <time>2025-12-10T11:17:09.000Z</time>
      </trkpt>
      <trkpt lat="43.31592" lon="6.46498">
        <ele>503</ele>
        <time>2025-12-10T11:17:27.000Z</time>
      </trkpt>
      <trkpt lat="43.31601" lon="6.46499">
        <ele>500</ele>
        <time>2025-12-10T11:17:54.000Z</time>
      </trkpt>
      <trkpt lat="43.31611" lon="6.465">
        <ele>497</ele>
        <time>2025-12-10T11:18:09.000Z</time>
      </trkpt>
      <trkpt lat="43.31621" lon="6.46498">
        <ele>495</ele>
        <time>2025-12-10T11:18:33.000Z</time>
      </trkpt>
      <trkpt lat="43.3163" lon="6.46493">
        <ele>492</ele>
        <time>2025-12-10T11:18:54.000Z</time>
      </trkpt>
      <trkpt lat="43.31639" lon="6.46496">
        <ele>491</ele>
        <time>2025-12-10T11:19:57.000Z</time>
      </trkpt>
      <trkpt lat="43.31647" lon="6.46506">
        <ele>490</ele>
        <time>2025-12-10T11:20:09.000Z</time>
      </trkpt>
      <trkpt lat="43.31657" lon="6.46513">
        <ele>488</ele>
        <time>2025-12-10T11:20:21.000Z</time>
      </trkpt>
      <trkpt lat="43.31669" lon="6.46514">
        <ele>488</ele>
        <time>2025-12-10T11:20:33.000Z</time>
      </trkpt>
      <trkpt lat="43.31679" lon="6.46508">
        <ele>487</ele>
        <time>2025-12-10T11:20:42.000Z</time>
      </trkpt>
      <trkpt lat="43.31686" lon="6.46498">
        <ele>487</ele>
        <time>2025-12-10T11:20:54.000Z</time>
      </trkpt>
      <trkpt lat="43.31693" lon="6.46489">
        <ele>488</ele>
        <time>2025-12-10T11:21:03.000Z</time>
      </trkpt>
      <trkpt lat="43.317" lon="6.46491">
        <ele>489</ele>
        <time>2025-12-10T11:21:39.000Z</time>
      </trkpt>
      <trkpt lat="43.31701" lon="6.46502">
        <ele>489</ele>
        <time>2025-12-10T11:21:57.000Z</time>
      </trkpt>
      <trkpt lat="43.31703" lon="6.46511">
        <ele>488</ele>
        <time>2025-12-10T11:22:12.000Z</time>
      </trkpt>
      <trkpt lat="43.31709" lon="6.46506">
        <ele>487</ele>
        <time>2025-12-10T11:23:51.000Z</time>
      </trkpt>
      <trkpt lat="43.31718" lon="6.46501">
        <ele>486</ele>
        <time>2025-12-10T11:24:06.000Z</time>
      </trkpt>
      <trkpt lat="43.31726" lon="6.46495">
        <ele>486</ele>
        <time>2025-12-10T11:24:33.000Z</time>
      </trkpt>
      <trkpt lat="43.31735" lon="6.46491">
        <ele>485</ele>
        <time>2025-12-10T11:24:54.000Z</time>
      </trkpt>
      <trkpt lat="43.31739" lon="6.465">
        <ele>485</ele>
        <time>2025-12-10T11:26:15.000Z</time>
      </trkpt>
      <trkpt lat="43.31749" lon="6.46503">
        <ele>484</ele>
        <time>2025-12-10T11:26:24.000Z</time>
      </trkpt>
      <trkpt lat="43.31758" lon="6.46507">
        <ele>483</ele>
        <time>2025-12-10T11:26:39.000Z</time>
      </trkpt>
      <trkpt lat="43.31765" lon="6.46513">
        <ele>482</ele>
        <time>2025-12-10T11:26:51.000Z</time>
      </trkpt>
      <trkpt lat="43.31773" lon="6.4651">
        <ele>480</ele>
        <time>2025-12-10T11:28:15.000Z</time>
      </trkpt>
      <trkpt lat="43.31783" lon="6.46514">
        <ele>479</ele>
        <time>2025-12-10T11:28:30.000Z</time>
      </trkpt>
      <trkpt lat="43.31793" lon="6.46519">
        <ele>478</ele>
        <time>2025-12-10T11:28:45.000Z</time>
      </trkpt>
      <trkpt lat="43.318" lon="6.46526">
        <ele>477</ele>
        <time>2025-12-10T11:28:57.000Z</time>
      </trkpt>
      <trkpt lat="43.31804" lon="6.46535">
        <ele>477</ele>
        <time>2025-12-10T11:29:18.000Z</time>
      </trkpt>
      <trkpt lat="43.31808" lon="6.46529">
        <ele>478</ele>
        <time>2025-12-10T11:29:45.000Z</time>
      </trkpt>
      <trkpt lat="43.31818" lon="6.46527">
        <ele>479</ele>
        <time>2025-12-10T11:30:03.000Z</time>
      </trkpt>
      <trkpt lat="43.31827" lon="6.46525">
        <ele>479</ele>
        <time>2025-12-10T11:30:21.000Z</time>
      </trkpt>
      <trkpt lat="43.31836" lon="6.46521">
        <ele>480</ele>
        <time>2025-12-10T11:30:39.000Z</time>
      </trkpt>
      <trkpt lat="43.31846" lon="6.46523">
        <ele>481</ele>
        <time>2025-12-10T11:30:51.000Z</time>
      </trkpt>
      <trkpt lat="43.31854" lon="6.46519">
        <ele>482</ele>
        <time>2025-12-10T11:31:00.000Z</time>
      </trkpt>
      <trkpt lat="43.31864" lon="6.46517">
        <ele>483</ele>
        <time>2025-12-10T11:31:09.000Z</time>
      </trkpt>
      <trkpt lat="43.31873" lon="6.46518">
        <ele>483</ele>
        <time>2025-12-10T11:31:27.000Z</time>
      </trkpt>
      <trkpt lat="43.31883" lon="6.46523">
        <ele>484</ele>
        <time>2025-12-10T11:31:39.000Z</time>
      </trkpt>
      <trkpt lat="43.31881" lon="6.46533">
        <ele>484</ele>
        <time>2025-12-10T11:32:06.000Z</time>
      </trkpt>
      <trkpt lat="43.31876" lon="6.46536">
        <ele>483</ele>
        <time>2025-12-10T11:32:18.000Z</time>
      </trkpt>
      <trkpt lat="43.31883" lon="6.46533">
        <ele>482</ele>
        <time>2025-12-10T11:35:42.000Z</time>
      </trkpt>
      <trkpt lat="43.31888" lon="6.46524">
        <ele>482</ele>
        <time>2025-12-10T11:36:33.000Z</time>
      </trkpt>
      <trkpt lat="43.31898" lon="6.46521">
        <ele>481</ele>
        <time>2025-12-10T11:36:54.000Z</time>
      </trkpt>
      <trkpt lat="43.31908" lon="6.46519">
        <ele>481</ele>
        <time>2025-12-10T11:37:09.000Z</time>
      </trkpt>
      <trkpt lat="43.31917" lon="6.46521">
        <ele>480</ele>
        <time>2025-12-10T11:37:18.000Z</time>
      </trkpt>
      <trkpt lat="43.31927" lon="6.4652">
        <ele>480</ele>
        <time>2025-12-10T11:37:30.000Z</time>
      </trkpt>
      <trkpt lat="43.31937" lon="6.4652">
        <ele>479</ele>
        <time>2025-12-10T11:37:42.000Z</time>
      </trkpt>
      <trkpt lat="43.31946" lon="6.46516">
        <ele>478</ele>
        <time>2025-12-10T11:37:57.000Z</time>
      </trkpt>
      <trkpt lat="43.31957" lon="6.4651">
        <ele>478</ele>
        <time>2025-12-10T11:38:15.000Z</time>
      </trkpt>
      <trkpt lat="43.31966" lon="6.46503">
        <ele>477</ele>
        <time>2025-12-10T11:38:27.000Z</time>
      </trkpt>
      <trkpt lat="43.31976" lon="6.46501">
        <ele>475</ele>
        <time>2025-12-10T11:38:39.000Z</time>
      </trkpt>
      <trkpt lat="43.31985" lon="6.46496">
        <ele>474</ele>
        <time>2025-12-10T11:38:51.000Z</time>
      </trkpt>
      <trkpt lat="43.31994" lon="6.46489">
        <ele>472</ele>
        <time>2025-12-10T11:39:12.000Z</time>
      </trkpt>
      <trkpt lat="43.32002" lon="6.46487">
        <ele>471</ele>
        <time>2025-12-10T11:39:45.000Z</time>
      </trkpt>
      <trkpt lat="43.32011" lon="6.46481">
        <ele>470</ele>
        <time>2025-12-10T11:40:18.000Z</time>
      </trkpt>
      <trkpt lat="43.32014" lon="6.46472">
        <ele>469</ele>
        <time>2025-12-10T11:40:33.000Z</time>
      </trkpt>
      <trkpt lat="43.32022" lon="6.46477">
        <ele>467</ele>
        <time>2025-12-10T11:40:42.000Z</time>
      </trkpt>
      <trkpt lat="43.32031" lon="6.46478">
        <ele>465</ele>
        <time>2025-12-10T11:41:03.000Z</time>
      </trkpt>
      <trkpt lat="43.32039" lon="6.46471">
        <ele>464</ele>
        <time>2025-12-10T11:41:30.000Z</time>
      </trkpt>
      <trkpt lat="43.32046" lon="6.46464">
        <ele>461</ele>
        <time>2025-12-10T11:41:54.000Z</time>
      </trkpt>
      <trkpt lat="43.32054" lon="6.46469">
        <ele>460</ele>
        <time>2025-12-10T11:42:21.000Z</time>
      </trkpt>
      <trkpt lat="43.32064" lon="6.46469">
        <ele>459</ele>
        <time>2025-12-10T11:42:39.000Z</time>
      </trkpt>
      <trkpt lat="43.32073" lon="6.4647">
        <ele>459</ele>
        <time>2025-12-10T11:43:00.000Z</time>
      </trkpt>
      <trkpt lat="43.32081" lon="6.46462">
        <ele>460</ele>
        <time>2025-12-10T11:43:36.000Z</time>
      </trkpt>
      <trkpt lat="43.32089" lon="6.46456">
        <ele>462</ele>
        <time>2025-12-10T11:44:15.000Z</time>
      </trkpt>
      <trkpt lat="43.32098" lon="6.46456">
        <ele>463</ele>
        <time>2025-12-10T11:44:27.000Z</time>
      </trkpt>
      <trkpt lat="43.32107" lon="6.46453">
        <ele>464</ele>
        <time>2025-12-10T11:46:09.000Z</time>
      </trkpt>
      <trkpt lat="43.32116" lon="6.46454">
        <ele>466</ele>
        <time>2025-12-10T11:46:33.000Z</time>
      </trkpt>
      <trkpt lat="43.32127" lon="6.46456">
        <ele>468</ele>
        <time>2025-12-10T11:46:51.000Z</time>
      </trkpt>
      <trkpt lat="43.32136" lon="6.46456">
        <ele>470</ele>
        <time>2025-12-10T11:47:06.000Z</time>
      </trkpt>
      <trkpt lat="43.32144" lon="6.46456">
        <ele>474</ele>
        <time>2025-12-10T11:47:51.000Z</time>
      </trkpt>
      <trkpt lat="43.3214" lon="6.46449">
        <ele>477</ele>
        <time>2025-12-10T11:50:15.000Z</time>
      </trkpt>
      <trkpt lat="43.32137" lon="6.46438">
        <ele>480</ele>
        <time>2025-12-10T11:50:36.000Z</time>
      </trkpt>
      <trkpt lat="43.32131" lon="6.46429">
        <ele>483</ele>
        <time>2025-12-10T11:50:54.000Z</time>
      </trkpt>
      <trkpt lat="43.32125" lon="6.46424">
        <ele>486</ele>
        <time>2025-12-10T11:51:09.000Z</time>
      </trkpt>
      <trkpt lat="43.32129" lon="6.46418">
        <ele>489</ele>
        <time>2025-12-10T11:51:24.000Z</time>
      </trkpt>
      <trkpt lat="43.32137" lon="6.4642">
        <ele>491</ele>
        <time>2025-12-10T11:51:44.000Z</time>
      </trkpt>
      <trkpt lat="43.32143" lon="6.46413">
        <ele>493</ele>
        <time>2025-12-10T11:52:08.000Z</time>
      </trkpt>
      <trkpt lat="43.32144" lon="6.46403">
        <ele>494</ele>
        <time>2025-12-10T11:53:05.000Z</time>
      </trkpt>
      <trkpt lat="43.32138" lon="6.46407">
        <ele>495</ele>
        <time>2025-12-10T11:53:38.000Z</time>
      </trkpt>
      <trkpt lat="43.32134" lon="6.46399">
        <ele>496</ele>
        <time>2025-12-10T11:53:53.000Z</time>
      </trkpt>
      <trkpt lat="43.3213" lon="6.46403">
        <ele>495</ele>
        <time>2025-12-10T11:54:05.000Z</time>
      </trkpt>
      <trkpt lat="43.32132" lon="6.46395">
        <ele>493</ele>
        <time>2025-12-10T12:33:56.000Z</time>
      </trkpt>
      <trkpt lat="43.32132" lon="6.46381">
        <ele>491</ele>
        <time>2025-12-10T12:37:20.000Z</time>
      </trkpt>
      <trkpt lat="43.32128" lon="6.46369">
        <ele>488</ele>
        <time>2025-12-10T12:37:50.000Z</time>
      </trkpt>
      <trkpt lat="43.32124" lon="6.46359">
        <ele>487</ele>
        <time>2025-12-10T12:38:41.000Z</time>
      </trkpt>
      <trkpt lat="43.32128" lon="6.46348">
        <ele>486</ele>
        <time>2025-12-10T12:38:56.000Z</time>
      </trkpt>
      <trkpt lat="43.32137" lon="6.46342">
        <ele>485</ele>
        <time>2025-12-10T12:39:08.000Z</time>
      </trkpt>
      <trkpt lat="43.32145" lon="6.46337">
        <ele>485</ele>
        <time>2025-12-10T12:39:20.000Z</time>
      </trkpt>
      <trkpt lat="43.32155" lon="6.4634">
        <ele>484</ele>
        <time>2025-12-10T12:39:29.000Z</time>
      </trkpt>
      <trkpt lat="43.32165" lon="6.46343">
        <ele>483</ele>
        <time>2025-12-10T12:39:41.000Z</time>
      </trkpt>
      <trkpt lat="43.32172" lon="6.46353">
        <ele>482</ele>
        <time>2025-12-10T12:39:53.000Z</time>
      </trkpt>
      <trkpt lat="43.32177" lon="6.46363">
        <ele>481</ele>
        <time>2025-12-10T12:40:08.000Z</time>
      </trkpt>
      <trkpt lat="43.32179" lon="6.46376">
        <ele>479</ele>
        <time>2025-12-10T12:40:29.000Z</time>
      </trkpt>
      <trkpt lat="43.32181" lon="6.46389">
        <ele>477</ele>
        <time>2025-12-10T12:40:44.000Z</time>
      </trkpt>
      <trkpt lat="43.32183" lon="6.46402">
        <ele>475</ele>
        <time>2025-12-10T12:40:56.000Z</time>
      </trkpt>
      <trkpt lat="43.32182" lon="6.46415">
        <ele>473</ele>
        <time>2025-12-10T12:41:14.000Z</time>
      </trkpt>
      <trkpt lat="43.3218" lon="6.46429">
        <ele>470</ele>
        <time>2025-12-10T12:41:32.000Z</time>
      </trkpt>
      <trkpt lat="43.32175" lon="6.46439">
        <ele>468</ele>
        <time>2025-12-10T12:41:44.000Z</time>
      </trkpt>
      <trkpt lat="43.32183" lon="6.46438">
        <ele>465</ele>
        <time>2025-12-10T12:42:02.000Z</time>
      </trkpt>
      <trkpt lat="43.32189" lon="6.46445">
        <ele>462</ele>
        <time>2025-12-10T12:42:26.000Z</time>
      </trkpt>
      <trkpt lat="43.32191" lon="6.46458">
        <ele>459</ele>
        <time>2025-12-10T12:42:47.000Z</time>
      </trkpt>
      <trkpt lat="43.322" lon="6.46462">
        <ele>456</ele>
        <time>2025-12-10T12:43:23.000Z</time>
      </trkpt>
      <trkpt lat="43.32204" lon="6.46473">
        <ele>452</ele>
        <time>2025-12-10T12:44:02.000Z</time>
      </trkpt>
      <trkpt lat="43.32207" lon="6.46485">
        <ele>449</ele>
        <time>2025-12-10T12:44:38.000Z</time>
      </trkpt>
      <trkpt lat="43.32202" lon="6.46495">
        <ele>446</ele>
        <time>2025-12-10T12:44:50.000Z</time>
      </trkpt>
      <trkpt lat="43.32196" lon="6.46505">
        <ele>442</ele>
        <time>2025-12-10T12:45:02.000Z</time>
      </trkpt>
      <trkpt lat="43.3219" lon="6.4651">
        <ele>439</ele>
        <time>2025-12-10T12:45:14.000Z</time>
      </trkpt>
      <trkpt lat="43.32195" lon="6.46518">
        <ele>435</ele>
        <time>2025-12-10T12:45:35.000Z</time>
      </trkpt>
      <trkpt lat="43.32198" lon="6.4653">
        <ele>431</ele>
        <time>2025-12-10T12:47:32.000Z</time>
      </trkpt>
      <trkpt lat="43.32194" lon="6.46538">
        <ele>429</ele>
        <time>2025-12-10T12:47:56.000Z</time>
      </trkpt>
      <trkpt lat="43.32197" lon="6.46549">
        <ele>426</ele>
        <time>2025-12-10T12:48:29.000Z</time>
      </trkpt>
      <trkpt lat="43.32202" lon="6.46559">
        <ele>423</ele>
        <time>2025-12-10T12:48:59.000Z</time>
      </trkpt>
      <trkpt lat="43.322" lon="6.46569">
        <ele>420</ele>
        <time>2025-12-10T12:49:26.000Z</time>
      </trkpt>
      <trkpt lat="43.32206" lon="6.46574">
        <ele>417</ele>
        <time>2025-12-10T12:49:41.000Z</time>
      </trkpt>
      <trkpt lat="43.3221" lon="6.46582">
        <ele>416</ele>
        <time>2025-12-10T12:50:08.000Z</time>
      </trkpt>
      <trkpt lat="43.32202" lon="6.46587">
        <ele>414</ele>
        <time>2025-12-10T12:50:20.000Z</time>
      </trkpt>
      <trkpt lat="43.32191" lon="6.46586">
        <ele>413</ele>
        <time>2025-12-10T12:50:35.000Z</time>
      </trkpt>
      <trkpt lat="43.32181" lon="6.46581">
        <ele>411</ele>
        <time>2025-12-10T12:50:47.000Z</time>
      </trkpt>
      <trkpt lat="43.32171" lon="6.46576">
        <ele>410</ele>
        <time>2025-12-10T12:50:59.000Z</time>
      </trkpt>
      <trkpt lat="43.32162" lon="6.4657">
        <ele>409</ele>
        <time>2025-12-10T12:51:11.000Z</time>
      </trkpt>
      <trkpt lat="43.32151" lon="6.46566">
        <ele>408</ele>
        <time>2025-12-10T12:51:23.000Z</time>
      </trkpt>
      <trkpt lat="43.32141" lon="6.46563">
        <ele>408</ele>
        <time>2025-12-10T12:51:35.000Z</time>
      </trkpt>
      <trkpt lat="43.32132" lon="6.46563">
        <ele>408</ele>
        <time>2025-12-10T12:51:41.000Z</time>
      </trkpt>
      <trkpt lat="43.32123" lon="6.46566">
        <ele>408</ele>
        <time>2025-12-10T12:51:50.000Z</time>
      </trkpt>
      <trkpt lat="43.32113" lon="6.46568">
        <ele>408</ele>
        <time>2025-12-10T12:51:59.000Z</time>
      </trkpt>
      <trkpt lat="43.32102" lon="6.46574">
        <ele>409</ele>
        <time>2025-12-10T12:52:11.000Z</time>
      </trkpt>
      <trkpt lat="43.32092" lon="6.46579">
        <ele>410</ele>
        <time>2025-12-10T12:52:20.000Z</time>
      </trkpt>
      <trkpt lat="43.32082" lon="6.46584">
        <ele>410</ele>
        <time>2025-12-10T12:52:29.000Z</time>
      </trkpt>
      <trkpt lat="43.32074" lon="6.4659">
        <ele>410</ele>
        <time>2025-12-10T12:52:38.000Z</time>
      </trkpt>
      <trkpt lat="43.32065" lon="6.46595">
        <ele>410</ele>
        <time>2025-12-10T12:52:56.000Z</time>
      </trkpt>
      <trkpt lat="43.32056" lon="6.466">
        <ele>409</ele>
        <time>2025-12-10T12:53:08.000Z</time>
      </trkpt>
      <trkpt lat="43.32046" lon="6.46605">
        <ele>409</ele>
        <time>2025-12-10T12:53:17.000Z</time>
      </trkpt>
      <trkpt lat="43.32037" lon="6.4661">
        <ele>408</ele>
        <time>2025-12-10T12:53:26.000Z</time>
      </trkpt>
      <trkpt lat="43.32029" lon="6.46616">
        <ele>407</ele>
        <time>2025-12-10T12:53:38.000Z</time>
      </trkpt>
      <trkpt lat="43.3202" lon="6.46623">
        <ele>405</ele>
        <time>2025-12-10T12:53:47.000Z</time>
      </trkpt>
      <trkpt lat="43.32012" lon="6.46633">
        <ele>403</ele>
        <time>2025-12-10T12:53:59.000Z</time>
      </trkpt>
      <trkpt lat="43.32002" lon="6.4664">
        <ele>401</ele>
        <time>2025-12-10T12:54:11.000Z</time>
      </trkpt>
      <trkpt lat="43.3199" lon="6.46644">
        <ele>400</ele>
        <time>2025-12-10T12:54:23.000Z</time>
      </trkpt>
      <trkpt lat="43.31981" lon="6.46651">
        <ele>400</ele>
        <time>2025-12-10T12:54:32.000Z</time>
      </trkpt>
      <trkpt lat="43.31973" lon="6.46658">
        <ele>400</ele>
        <time>2025-12-10T12:54:38.000Z</time>
      </trkpt>
      <trkpt lat="43.31965" lon="6.46666">
        <ele>401</ele>
        <time>2025-12-10T12:54:44.000Z</time>
      </trkpt>
      <trkpt lat="43.31953" lon="6.46679">
        <ele>402</ele>
        <time>2025-12-10T12:54:53.000Z</time>
      </trkpt>
      <trkpt lat="43.31943" lon="6.46687">
        <ele>402</ele>
        <time>2025-12-10T12:55:02.000Z</time>
      </trkpt>
      <trkpt lat="43.31933" lon="6.46693">
        <ele>403</ele>
        <time>2025-12-10T12:55:11.000Z</time>
      </trkpt>
      <trkpt lat="43.31923" lon="6.46699">
        <ele>403</ele>
        <time>2025-12-10T12:55:20.000Z</time>
      </trkpt>
      <trkpt lat="43.31913" lon="6.46704">
        <ele>403</ele>
        <time>2025-12-10T12:55:32.000Z</time>
      </trkpt>
      <trkpt lat="43.31903" lon="6.46707">
        <ele>403</ele>
        <time>2025-12-10T12:55:41.000Z</time>
      </trkpt>
      <trkpt lat="43.31894" lon="6.46705">
        <ele>403</ele>
        <time>2025-12-10T12:55:50.000Z</time>
      </trkpt>
      <trkpt lat="43.31885" lon="6.46702">
        <ele>403</ele>
        <time>2025-12-10T12:55:59.000Z</time>
      </trkpt>
      <trkpt lat="43.31878" lon="6.46695">
        <ele>402</ele>
        <time>2025-12-10T12:56:11.000Z</time>
      </trkpt>
      <trkpt lat="43.3187" lon="6.46697">
        <ele>403</ele>
        <time>2025-12-10T12:56:20.000Z</time>
      </trkpt>
      <trkpt lat="43.31859" lon="6.46699">
        <ele>403</ele>
        <time>2025-12-10T12:56:29.000Z</time>
      </trkpt>
      <trkpt lat="43.31849" lon="6.46701">
        <ele>403</ele>
        <time>2025-12-10T12:56:38.000Z</time>
      </trkpt>
      <trkpt lat="43.31838" lon="6.46702">
        <ele>403</ele>
        <time>2025-12-10T12:56:47.000Z</time>
      </trkpt>
      <trkpt lat="43.3183" lon="6.46709">
        <ele>403</ele>
        <time>2025-12-10T12:56:56.000Z</time>
      </trkpt>
      <trkpt lat="43.31822" lon="6.46715">
        <ele>402</ele>
        <time>2025-12-10T12:57:23.000Z</time>
      </trkpt>
      <trkpt lat="43.31814" lon="6.4672">
        <ele>402</ele>
        <time>2025-12-10T12:58:08.000Z</time>
      </trkpt>
      <trkpt lat="43.31812" lon="6.46733">
        <ele>401</ele>
        <time>2025-12-10T12:59:02.000Z</time>
      </trkpt>
      <trkpt lat="43.3181" lon="6.46745">
        <ele>401</ele>
        <time>2025-12-10T12:59:17.000Z</time>
      </trkpt>
      <trkpt lat="43.31808" lon="6.46756">
        <ele>402</ele>
        <time>2025-12-10T12:59:29.000Z</time>
      </trkpt>
      <trkpt lat="43.31817" lon="6.46759">
        <ele>402</ele>
        <time>2025-12-10T12:59:41.000Z</time>
      </trkpt>
      <trkpt lat="43.3181" lon="6.46757">
        <ele>401</ele>
        <time>2025-12-10T13:04:32.000Z</time>
      </trkpt>
      <trkpt lat="43.31801" lon="6.46758">
        <ele>400</ele>
        <time>2025-12-10T13:06:14.000Z</time>
      </trkpt>
      <trkpt lat="43.31792" lon="6.46763">
        <ele>399</ele>
        <time>2025-12-10T13:06:26.000Z</time>
      </trkpt>
      <trkpt lat="43.31783" lon="6.46768">
        <ele>398</ele>
        <time>2025-12-10T13:06:35.000Z</time>
      </trkpt>
      <trkpt lat="43.31774" lon="6.46775">
        <ele>398</ele>
        <time>2025-12-10T13:06:44.000Z</time>
      </trkpt>
      <trkpt lat="43.31767" lon="6.46782">
        <ele>398</ele>
        <time>2025-12-10T13:06:53.000Z</time>
      </trkpt>
      <trkpt lat="43.31764" lon="6.46796">
        <ele>398</ele>
        <time>2025-12-10T13:07:02.000Z</time>
      </trkpt>
      <trkpt lat="43.31763" lon="6.4681">
        <ele>398</ele>
        <time>2025-12-10T13:07:11.000Z</time>
      </trkpt>
      <trkpt lat="43.31765" lon="6.46821">
        <ele>397</ele>
        <time>2025-12-10T13:07:38.000Z</time>
      </trkpt>
      <trkpt lat="43.31774" lon="6.46828">
        <ele>397</ele>
        <time>2025-12-10T13:07:47.000Z</time>
      </trkpt>
      <trkpt lat="43.31785" lon="6.46835">
        <ele>397</ele>
        <time>2025-12-10T13:07:56.000Z</time>
      </trkpt>
      <trkpt lat="43.31793" lon="6.46844">
        <ele>397</ele>
        <time>2025-12-10T13:08:05.000Z</time>
      </trkpt>
      <trkpt lat="43.31797" lon="6.46856">
        <ele>397</ele>
        <time>2025-12-10T13:08:17.000Z</time>
      </trkpt>
      <trkpt lat="43.31801" lon="6.46867">
        <ele>397</ele>
        <time>2025-12-10T13:08:26.000Z</time>
      </trkpt>
      <trkpt lat="43.31802" lon="6.46881">
        <ele>396</ele>
        <time>2025-12-10T13:08:41.000Z</time>
      </trkpt>
      <trkpt lat="43.31798" lon="6.46895">
        <ele>396</ele>
        <time>2025-12-10T13:08:50.000Z</time>
      </trkpt>
      <trkpt lat="43.31793" lon="6.46907">
        <ele>395</ele>
        <time>2025-12-10T13:08:59.000Z</time>
      </trkpt>
      <trkpt lat="43.31788" lon="6.46918">
        <ele>394</ele>
        <time>2025-12-10T13:09:08.000Z</time>
      </trkpt>
      <trkpt lat="43.31783" lon="6.46931">
        <ele>393</ele>
        <time>2025-12-10T13:09:17.000Z</time>
      </trkpt>
      <trkpt lat="43.31779" lon="6.46941">
        <ele>393</ele>
        <time>2025-12-10T13:09:23.000Z</time>
      </trkpt>
      <trkpt lat="43.31776" lon="6.46953">
        <ele>393</ele>
        <time>2025-12-10T13:10:11.000Z</time>
      </trkpt>
      <trkpt lat="43.31777" lon="6.46962">
        <ele>390</ele>
        <time>2025-12-10T13:28:49.000Z</time>
      </trkpt>
      <trkpt lat="43.31813" lon="6.4695">
        <ele>385</ele>
        <time>2025-12-10T13:28:53.000Z</time>
      </trkpt>
      <trkpt lat="43.31807" lon="6.46931">
        <ele>378</ele>
        <time>2025-12-10T13:29:02.000Z</time>
      </trkpt>
      <trkpt lat="43.31784" lon="6.46925">
        <ele>370</ele>
        <time>2025-12-10T13:37:00.000Z</time>
      </trkpt>
      <trkpt lat="43.31784" lon="6.46924">
        <ele>359</ele>
        <time>2025-12-10T13:37:12.000Z</time>
      </trkpt>
      <trkpt lat="43.31768" lon="6.46952">
        <ele>349</ele>
        <time>2025-12-10T13:37:18.000Z</time>
      </trkpt>
      <trkpt lat="43.3175" lon="6.46984">
        <ele>339</ele>
        <time>2025-12-10T13:37:21.000Z</time>
      </trkpt>
      <trkpt lat="43.31729" lon="6.47016">
        <ele>330</ele>
        <time>2025-12-10T13:37:24.000Z</time>
      </trkpt>
      <trkpt lat="43.3172" lon="6.47029">
        <ele>327</ele>
        <time>2025-12-10T13:37:27.000Z</time>
      </trkpt>
      <trkpt lat="43.31725" lon="6.47032">
        <ele>326</ele>
        <time>2025-12-10T13:37:33.000Z</time>
      </trkpt>
      <trkpt lat="43.31727" lon="6.47018">
        <ele>328</ele>
        <time>2025-12-10T13:37:42.000Z</time>
      </trkpt>
      <trkpt lat="43.31728" lon="6.47006">
        <ele>333</ele>
        <time>2025-12-10T13:37:45.000Z</time>
      </trkpt>
      <trkpt lat="43.31736" lon="6.47006">
        <ele>340</ele>
        <time>2025-12-10T13:38:03.000Z</time>
      </trkpt>
      <trkpt lat="43.31746" lon="6.47012">
        <ele>349</ele>
        <time>2025-12-10T13:38:09.000Z</time>
      </trkpt>
      <trkpt lat="43.31748" lon="6.47">
        <ele>359</ele>
        <time>2025-12-10T13:38:21.000Z</time>
      </trkpt>
      <trkpt lat="43.31756" lon="6.46993">
        <ele>368</ele>
        <time>2025-12-10T13:38:30.000Z</time>
      </trkpt>
      <trkpt lat="43.31783" lon="6.47034">
        <ele>376</ele>
        <time>2025-12-10T13:39:02.000Z</time>
      </trkpt>
      <trkpt lat="43.31783" lon="6.4703">
        <ele>383</ele>
        <time>2025-12-10T13:39:09.000Z</time>
      </trkpt>
      <trkpt lat="43.31783" lon="6.47015">
        <ele>390</ele>
        <time>2025-12-10T13:39:12.000Z</time>
      </trkpt>
      <trkpt lat="43.31785" lon="6.4699">
        <ele>395</ele>
        <time>2025-12-10T13:39:15.000Z</time>
      </trkpt>
      <trkpt lat="43.31788" lon="6.46971">
        <ele>397</ele>
        <time>2025-12-10T13:39:18.000Z</time>
      </trkpt>
      <trkpt lat="43.31785" lon="6.46958">
        <ele>398</ele>
        <time>2025-12-10T13:39:21.000Z</time>
      </trkpt>
      <trkpt lat="43.31779" lon="6.46948">
        <ele>397</ele>
        <time>2025-12-10T13:39:27.000Z</time>
      </trkpt>
      <trkpt lat="43.31772" lon="6.46959">
        <ele>395</ele>
        <time>2025-12-10T13:39:39.000Z</time>
      </trkpt>
      <trkpt lat="43.31771" lon="6.46973">
        <ele>393</ele>
        <time>2025-12-10T13:39:45.000Z</time>
      </trkpt>
      <trkpt lat="43.31776" lon="6.46973">
        <ele>390</ele>
        <time>2025-12-10T13:39:54.000Z</time>
      </trkpt>
      <trkpt lat="43.31767" lon="6.46966">
        <ele>385</ele>
        <time>2025-12-10T13:40:00.000Z</time>
      </trkpt>
      <trkpt lat="43.31754" lon="6.46959">
        <ele>380</ele>
        <time>2025-12-10T13:40:06.000Z</time>
      </trkpt>
      <trkpt lat="43.31746" lon="6.46965">
        <ele>377</ele>
        <time>2025-12-10T13:40:09.000Z</time>
      </trkpt>
      <trkpt lat="43.3175" lon="6.46975">
        <ele>374</ele>
        <time>2025-12-10T13:40:18.000Z</time>
      </trkpt>
      <trkpt lat="43.31746" lon="6.46985">
        <ele>372</ele>
        <time>2025-12-10T13:40:24.000Z</time>
      </trkpt>
      <trkpt lat="43.31754" lon="6.46986">
        <ele>371</ele>
        <time>2025-12-10T13:40:30.000Z</time>
      </trkpt>
      <trkpt lat="43.31765" lon="6.46979">
        <ele>371</ele>
        <time>2025-12-10T13:40:33.000Z</time>
      </trkpt>
      <trkpt lat="43.3176" lon="6.46983">
        <ele>370</ele>
        <time>2025-12-10T13:40:48.000Z</time>
      </trkpt>
      <trkpt lat="43.31769" lon="6.46994">
        <ele>370</ele>
        <time>2025-12-10T13:40:57.000Z</time>
      </trkpt>
      <trkpt lat="43.31772" lon="6.47005">
        <ele>369</ele>
        <time>2025-12-10T13:41:03.000Z</time>
      </trkpt>
      <trkpt lat="43.31775" lon="6.46997">
        <ele>372</ele>
        <time>2025-12-10T13:41:09.000Z</time>
      </trkpt>
      <trkpt lat="43.31786" lon="6.46991">
        <ele>375</ele>
        <time>2025-12-10T13:41:15.000Z</time>
      </trkpt>
      <trkpt lat="43.31787" lon="6.47002">
        <ele>378</ele>
        <time>2025-12-10T13:41:18.000Z</time>
      </trkpt>
      <trkpt lat="43.31773" lon="6.46997">
        <ele>383</ele>
        <time>2025-12-10T13:41:29.000Z</time>
      </trkpt>
      <trkpt lat="43.31778" lon="6.4695">
        <ele>383</ele>
        <time>2025-12-10T13:43:46.000Z</time>
      </trkpt>
      <trkpt lat="43.31785" lon="6.4693">
        <ele>385</ele>
        <time>2025-12-10T13:46:54.000Z</time>
      </trkpt>
      <trkpt lat="43.31791" lon="6.46918">
        <ele>386</ele>
        <time>2025-12-10T13:47:03.000Z</time>
      </trkpt>
      <trkpt lat="43.31799" lon="6.46912">
        <ele>386</ele>
        <time>2025-12-10T13:47:24.000Z</time>
      </trkpt>
      <trkpt lat="43.31808" lon="6.46907">
        <ele>386</ele>
        <time>2025-12-10T13:47:36.000Z</time>
      </trkpt>
      <trkpt lat="43.31815" lon="6.46899">
        <ele>386</ele>
        <time>2025-12-10T13:47:51.000Z</time>
      </trkpt>
      <trkpt lat="43.31821" lon="6.46889">
        <ele>386</ele>
        <time>2025-12-10T13:48:00.000Z</time>
      </trkpt>
      <trkpt lat="43.31825" lon="6.46877">
        <ele>386</ele>
        <time>2025-12-10T13:48:09.000Z</time>
      </trkpt>
      <trkpt lat="43.31831" lon="6.46866">
        <ele>387</ele>
        <time>2025-12-10T13:48:18.000Z</time>
      </trkpt>
      <trkpt lat="43.31839" lon="6.46862">
        <ele>387</ele>
        <time>2025-12-10T13:48:27.000Z</time>
      </trkpt>
      <trkpt lat="43.31849" lon="6.46871">
        <ele>387</ele>
        <time>2025-12-10T13:48:36.000Z</time>
      </trkpt>
      <trkpt lat="43.31859" lon="6.46879">
        <ele>387</ele>
        <time>2025-12-10T13:48:45.000Z</time>
      </trkpt>
      <trkpt lat="43.31868" lon="6.46884">
        <ele>386</ele>
        <time>2025-12-10T13:48:54.000Z</time>
      </trkpt>
      <trkpt lat="43.31878" lon="6.46891">
        <ele>385</ele>
        <time>2025-12-10T13:49:03.000Z</time>
      </trkpt>
      <trkpt lat="43.31887" lon="6.46896">
        <ele>383</ele>
        <time>2025-12-10T13:49:12.000Z</time>
      </trkpt>
      <trkpt lat="43.31896" lon="6.46901">
        <ele>382</ele>
        <time>2025-12-10T13:49:30.000Z</time>
      </trkpt>
      <trkpt lat="43.31903" lon="6.46909">
        <ele>380</ele>
        <time>2025-12-10T13:49:39.000Z</time>
      </trkpt>
      <trkpt lat="43.31913" lon="6.46916">
        <ele>378</ele>
        <time>2025-12-10T13:49:51.000Z</time>
      </trkpt>
      <trkpt lat="43.31916" lon="6.46931">
        <ele>376</ele>
        <time>2025-12-10T13:50:06.000Z</time>
      </trkpt>
      <trkpt lat="43.31908" lon="6.46941">
        <ele>375</ele>
        <time>2025-12-10T13:50:15.000Z</time>
      </trkpt>
      <trkpt lat="43.31897" lon="6.46946">
        <ele>374</ele>
        <time>2025-12-10T13:50:24.000Z</time>
      </trkpt>
      <trkpt lat="43.31891" lon="6.46955">
        <ele>374</ele>
        <time>2025-12-10T13:50:33.000Z</time>
      </trkpt>
      <trkpt lat="43.31895" lon="6.46969">
        <ele>373</ele>
        <time>2025-12-10T13:50:42.000Z</time>
      </trkpt>
      <trkpt lat="43.31902" lon="6.46982">
        <ele>372</ele>
        <time>2025-12-10T13:50:51.000Z</time>
      </trkpt>
      <trkpt lat="43.31908" lon="6.46996">
        <ele>371</ele>
        <time>2025-12-10T13:51:00.000Z</time>
      </trkpt>
      <trkpt lat="43.31913" lon="6.47005">
        <ele>372</ele>
        <time>2025-12-10T13:51:09.000Z</time>
      </trkpt>
      <trkpt lat="43.3192" lon="6.47016">
        <ele>373</ele>
        <time>2025-12-10T13:51:18.000Z</time>
      </trkpt>
    </trkseg>
  </trk>
</gpx>